Energizer Night Race Manila 2015
Race Results


   
Energizer Night Race Manila 2015 - Jun 27, 2015
Filinvest City, Alabang Gunstart 07:06:31 PM
Share Result:     Share via Facebook    

Race information

  Event Name : Energizer Night Race Manila 2015
  Event Date : Jun 27, 2015
  Event Description : Filinvest City, Alabang

Gunstart
07:06:31 PM

Got Race Questions?

*Full Name  
*BIB  
* Email  
* Race Category  
* Time Finished  
* Other Concerns pertaining to the published result:  
 

Race Photos

View last rank

Race Results :

3k
6k
9k
12k
15k
18k
21k

Rank Name & BIB Time Pace
1Unknown Runner (1779)00:14:560:04:58 min/km
2Unknown Runner (2661)00:15:010:05:00 min/km
3JOHNARD DEL ROSARIO (2785)00:19:560:06:38 min/km
4Unknown Runner (2711)00:21:090:07:03 min/km
5Samantha Montepio (528)00:22:130:07:24 min/km
6Antonio Salori (1264)00:22:140:07:24 min/km
7Jupither De Jesus (527)00:22:200:07:26 min/km
8Manuel Santos (454)00:22:220:07:27 min/km
9Dewey Forastero (2352)00:22:250:07:28 min/km
10Maricar Oesmer (2877)00:22:350:07:31 min/km
11Marc Delos Santos (1747)00:22:590:07:39 min/km
12Mike Andrew Santos (457)00:23:260:07:48 min/km
13Laila Buquir (2168)00:24:310:08:10 min/km
14Michael Manzano (2169)00:24:330:08:11 min/km
15Melvin Martin Pasamba (144)00:24:360:08:12 min/km
16Rey Asenjo (541)00:24:440:08:14 min/km
17Gerr Bismar (1263)00:24:440:08:14 min/km
18Jeff Montemayor (1261)00:24:450:08:15 min/km
19Jigger Antido (2011)00:24:480:08:16 min/km
20Jason Orbista (2156)00:24:480:08:16 min/km
21Felix Alipio (2198)00:24:520:08:17 min/km
22Cecilia Joy Pardo (881)00:25:000:08:20 min/km
23Unknown Runner (1044)00:25:020:08:20 min/km
24Unknown Runner (760)00:25:040:08:21 min/km
25Jeremiah Dela Cruz (837)00:25:060:08:22 min/km
26Arveen Hernandez (1216)00:25:080:08:22 min/km
27Adeliza Abunto (2876)00:25:080:08:22 min/km
28Unknown Runner (2429)00:25:130:08:24 min/km
29Romel Espinoza (1749)00:25:210:08:27 min/km
30Elaine Sunshine Angeles (376)00:26:130:08:44 min/km
31Unknown Runner (2419)00:26:540:08:58 min/km
32Jonelean Garcia (139)00:26:570:08:59 min/km
33Vanessa Uy (136)00:27:010:09:00 min/km
34Ben Lagundino (2114)00:27:040:09:01 min/km
35Tommy Joven Leonardo (1607)00:27:060:09:02 min/km
36MS Medicated Spray Runner (1752)00:27:060:09:02 min/km
37John Broderick de Castro (142)00:27:110:09:03 min/km
38Miguel Calaquian (1629)00:27:130:09:04 min/km
39DC Maliksi (2468)00:27:210:09:07 min/km
40Marifel Abarro (579)00:27:320:09:10 min/km
41Jevelyn Lata (1380)00:27:350:09:11 min/km
42Joel Villamayor (478)00:27:370:09:12 min/km
43Judea Anne Runner (1527)00:27:400:09:13 min/km
44Ian Dexter Claveria (1215)00:27:430:09:14 min/km
45Allan Dexter Jarin (1575)00:27:500:09:16 min/km
46Rina Bacinillo (2247)00:28:070:09:22 min/km
47Resty Karl Gentolia (1583)00:28:080:09:22 min/km
48Marinel Magtanong (2109)00:28:100:09:23 min/km
49Ednora Bernas (2110)00:28:140:09:24 min/km
50Maribeth Mallonga (2108)00:28:150:09:25 min/km
51Enzen Gongora (535)00:28:330:09:31 min/km
52Mevin Acoba (1616)00:28:460:09:35 min/km
53Ramil Miranda (2086)00:28:480:09:36 min/km
54Unknown Runner (1070)00:28:520:09:37 min/km
55Jennifer Carreon (2369)00:28:540:09:38 min/km
56Margaret Joyce Lapid (238)00:29:100:09:43 min/km
57Jason Angala (298)00:29:140:09:44 min/km
58Roldan Marquez (2115)00:29:210:09:47 min/km
59Steven Pacis (197)00:29:320:09:50 min/km
60Bernard Velasco (97)00:29:400:09:53 min/km
61Unknown Runner (1739)00:29:460:09:55 min/km
62Jeizel Lyn Guevara (43)00:29:580:09:59 min/km
63Sammy Leonardo (1617)00:30:070:10:02 min/km
64Marilou Chua (1381)00:30:100:10:03 min/km
65Glenn Berdan (578)00:30:110:10:03 min/km
66Unknown Runner (1318)00:30:150:10:05 min/km
67Nelson Merculesio (1)00:30:170:10:05 min/km
68Unknown Runner (1040)00:30:280:10:09 min/km
69Unknown Runner (2709)00:30:300:10:10 min/km
70Romel Lintag (313)00:30:340:10:11 min/km
71RUNNR BGC Runner (1799)00:30:360:10:12 min/km
72Unknown Runner (711)00:30:380:10:12 min/km
73Tammy Namin (2203)00:30:440:10:14 min/km
74Jhoan Rosello (1221)00:30:470:10:15 min/km
75Diana Salome Dela Cruz (1223)00:30:480:10:16 min/km
76Angelito Sarad (2161)00:30:530:10:17 min/km
77Jean Grace Niedes (2150)00:30:550:10:18 min/km
78Jojo Correa (1074)00:30:560:10:18 min/km
79Lovely Barceta (2486)00:31:000:10:20 min/km
80Cindy Elisa Guillena (652)00:31:010:10:20 min/km
81Jasper Colayo (2157)00:31:030:10:21 min/km
82Lorenzo Isla (445)00:31:040:10:21 min/km
83Jimmy Mendez (1551)00:31:040:10:21 min/km
84Dwayne Alcon (1092)00:31:080:10:22 min/km
85Aldwin Alcazaren (1642)00:31:090:10:23 min/km
86Jackielyn Geronimo (2632)00:31:110:10:23 min/km
87Mary Rose Brito (2342)00:31:150:10:25 min/km
88Hatch Cruz (1945)00:31:240:10:28 min/km
89Unknown Runner (1707)00:31:270:10:29 min/km
90RUNNR BGC Runner (1786)00:31:310:10:30 min/km
91Abed Maghari (683)00:31:380:10:32 min/km
92Joan Villacruz Reyes (540)00:31:400:10:33 min/km
93Joann Ngabit Poncenlan (2153)00:31:420:10:34 min/km
94Angela Louise Balla (920)00:31:430:10:34 min/km
95Genoveva Ramela Maala (2154)00:31:430:10:34 min/km
96Miguel Fule (237)00:31:470:10:35 min/km
97Badong Hilario (1993)00:31:550:10:38 min/km
98Unknown Runner (148)00:31:580:10:39 min/km
99Fatima Benito (57)00:32:020:10:40 min/km
100Unknown Runner (766)00:32:110:10:43 min/km
101Mariano III Francisco (1587)00:32:120:10:44 min/km
102Kenneth Acap (1099)00:32:150:10:45 min/km
103Michael Vincent Chan (1078)00:32:180:10:46 min/km
104Anne Jambora (1991)00:32:180:10:46 min/km
105Romina Austria (1986)00:32:190:10:46 min/km
106Ma. Victoria Leonardo (1609)00:32:220:10:47 min/km
107Eunice Escara (1660)00:32:220:10:47 min/km
108Jaime mana Alberro (47)00:32:280:10:49 min/km
109Unknown Runner (2699)00:32:370:10:52 min/km
110Allan Simbul (98)00:32:450:10:55 min/km
111Grace Arazas (1395)00:32:570:10:59 min/km
112Dalisay Contemprate (1407)00:32:570:10:59 min/km
113Melvin Mitra (1734)00:32:590:10:59 min/km
114Unknown Runner (1046)00:33:000:11:00 min/km
115Unknown Runner (1043)00:33:030:11:01 min/km
116Jennifer Rivas (2827)00:33:040:11:01 min/km
117Unknown Runner (173)00:33:070:11:02 min/km
118Unknown Runner (174)00:33:090:11:03 min/km
119Joseph Almeda (1091)00:33:120:11:04 min/km
120Joann Oliveros (1414)00:33:130:11:04 min/km
121Unknown Runner (1473)00:33:190:11:06 min/km
122Reimon Agustin (1095)00:33:220:11:07 min/km
123Maria Cristina Puno (425)00:33:270:11:09 min/km
124Precy Ramillo (2106)00:33:270:11:09 min/km
125Galileo Guda (2249)00:33:270:11:09 min/km
126Filmar Mopon (467)00:33:330:11:11 min/km
127Freedom Charles Camballa (2485)00:33:350:11:11 min/km
128Susan Lintag (312)00:33:380:11:12 min/km
129Emelita Lonsame (2158)00:33:380:11:12 min/km
130Marilyn Cidro (1077)00:33:390:11:13 min/km
131Unknown Runner (712)00:33:420:11:14 min/km
132Jp Belo (943)00:33:440:11:14 min/km
133Danilyn Nacion (2602)00:33:470:11:15 min/km
134Eleanor Casao (2857)00:33:500:11:16 min/km
135Bianca Villamayor (476)00:34:010:11:20 min/km
136Jean Lanie Santos (2245)00:34:010:11:20 min/km
137Alex Orea (2448)00:34:050:11:21 min/km
138Romeo Martelino (922)00:34:060:11:22 min/km
139Aimee Rizza De Lara (1278)00:34:070:11:22 min/km
140Yu Quynh (2813)00:34:090:11:23 min/km
141EMMANUEL GERVACIO (2789)00:34:100:11:23 min/km
142Angelita Jaojoco (2814)00:34:120:11:24 min/km
143Jacquielyn Jacla (143)00:34:160:11:25 min/km
144Pablo Reyes Jr (539)00:34:160:11:25 min/km
145Abigail Abarrera (1279)00:34:160:11:25 min/km
146Princess Joy Lota (1570)00:34:180:11:26 min/km
147Unknown Runner (149)00:34:250:11:28 min/km
148Unknown Runner (1321)00:34:260:11:28 min/km
149Unknown Runner (1322)00:34:270:11:29 min/km
150Frederick Felicia (1386)00:34:270:11:29 min/km
151Kat Llemit (1976)00:34:300:11:30 min/km
152Angeil Pornea (1558)00:34:310:11:30 min/km
153Joseph Miranda (1637)00:34:320:11:30 min/km
154Ram Rafael (1978)00:34:320:11:30 min/km
155Johana Perez (329)00:34:360:11:32 min/km
156Michael Sy (328)00:34:370:11:32 min/km
157Paul Greco Zurbano (2629)00:34:370:11:32 min/km
158Richard John Cortez (1073)00:34:390:11:33 min/km
159Unknown Runner (765)00:34:440:11:34 min/km
160Roberto Molina (1549)00:34:510:11:37 min/km
161Alyssa Marie Nuno (479)00:34:520:11:37 min/km
162Julie Ann Almodal (2113)00:34:520:11:37 min/km
163Unknown Runner (764)00:34:540:11:38 min/km
164Madelene Doronela (1421)00:34:550:11:38 min/km
165Mark Rodellas (1601)00:34:560:11:38 min/km
166Myleen Poblete (1422)00:34:580:11:39 min/km
167RUNNR BGC Runner (1763)00:34:590:11:39 min/km
168Ave Dado (2750)00:35:020:11:40 min/km
169Michelle Marialing (2749)00:35:030:11:41 min/km
170Fenella Asenjo (542)00:35:060:11:42 min/km
171Ray John Adversalo (339)00:35:150:11:45 min/km
172Richard Manalili (2272)00:35:170:11:45 min/km
173Vaneza Varias (1257)00:35:180:11:46 min/km
174Michelle Manzano (2135)00:35:190:11:46 min/km
175Unknown Runner (1338)00:35:200:11:46 min/km
176Jordan Duabe (340)00:35:220:11:47 min/km
177Aleli Pachejo (789)00:35:230:11:47 min/km
178Maria Amyli Albano (292)00:35:290:11:49 min/km
179Josephine Mercado (2184)00:35:310:11:50 min/km
180Esther Jill Ramilo (2338)00:35:320:11:50 min/km
181Unknown Runner (1740)00:35:350:11:51 min/km
182Michael Ramilo (2337)00:35:380:11:52 min/km
183Joanna May Salazar (690)00:35:390:11:53 min/km
184Rose Anne Rodriguez (875)00:35:410:11:53 min/km
185Unknown Runner (830)00:35:430:11:54 min/km
186Edward Corillo (2065)00:35:440:11:54 min/km
187Joseph Opena II (1562)00:35:450:11:55 min/km
188Jonathan Profugo (2239)00:35:470:11:55 min/km
189Monaliza Corillo (1250)00:35:480:11:56 min/km
190Unknown Runner (829)00:35:490:11:56 min/km
191Randy Sarte (2772)00:35:490:11:56 min/km
192Sixto Jacala Jr (1579)00:35:500:11:56 min/km
193Beatrix Dominique Calica (2771)00:35:510:11:57 min/km
194Erwin Harold Dizon (439)00:35:540:11:58 min/km
195Jordan Fortes (566)00:35:540:11:58 min/km
196Joana Marie Dizon (440)00:35:560:11:58 min/km
197Unknown Runner (2664)00:35:570:11:59 min/km
198Rouel Alberto Albea (82)00:35:590:11:59 min/km
199Unknown Runner (1315)00:35:590:11:59 min/km
200Unknown Runner (1314)00:36:010:12:00 min/km
201Genciana Catherine (146)00:36:020:12:00 min/km
202Shelley Romero (843)00:36:040:12:01 min/km
203Unknown Runner (2946)00:36:060:12:02 min/km
204MariLyn Mariano (44)00:36:100:12:03 min/km
205Josephine Runner (48)00:36:110:12:03 min/km
206Leila Quimo (665)00:36:110:12:03 min/km
207Unknown Runner (2654)00:36:110:12:03 min/km
208Unknown Runner (2948)00:36:120:12:04 min/km
209Mark Santos (2941)00:36:130:12:04 min/km
210Unknown Runner (2653)00:36:140:12:04 min/km
211Mark Mendoza (1550)00:36:150:12:05 min/km
212Unknown Runner (2407)00:36:200:12:06 min/km
213Ma. Celina Evangelista (1589)00:36:210:12:07 min/km
214Unknown Runner (2732)00:36:290:12:09 min/km
215Bryan Clemente (424)00:36:300:12:10 min/km
216Mark Alvin Rodriguez (905)00:36:320:12:10 min/km
217Paulo Ramillo (2104)00:36:360:12:12 min/km
218Kirsten Lyle Avanzado (904)00:36:370:12:12 min/km
219Maria Abegail Jacinto (923)00:36:390:12:13 min/km
220Alex Pallera (2100)00:36:390:12:13 min/km
221Unknown Runner (774)00:36:430:12:14 min/km
222Milbert Aguas (2020)00:36:480:12:16 min/km
223Lady Sherrilyn Valdez (669)00:36:490:12:16 min/km
224Unknown Runner (1041)00:36:490:12:16 min/km
225Nathan Soriano (2621)00:36:490:12:16 min/km
226Marvin Mayor (2024)00:36:500:12:16 min/km
227Roseller Sanchez (2367)00:36:520:12:17 min/km
228Alexson Diaz (2622)00:36:520:12:17 min/km
229Vergelio Torres (322)00:36:540:12:18 min/km
230Fiohna Bulacito (116)00:36:570:12:19 min/km
231Robert Sanchez (537)00:36:570:12:19 min/km
232Rosh Valdez (670)00:36:570:12:19 min/km
233Braydenne Bulacito (115)00:36:580:12:19 min/km
234John Rommel Jael (472)00:37:010:12:20 min/km
235Unknown Runner (154)00:37:020:12:20 min/km
236Dorethy Faustino (1377)00:37:030:12:21 min/km
237Unknown Runner (888)00:37:080:12:22 min/km
238Unknown Runner (1476)00:37:140:12:24 min/km
239Ma. Crisanta Mandi (1546)00:37:160:12:25 min/km
240Unknown Runner (1312)00:37:170:12:25 min/km
241Ma. Farina Sarmiento (1899)00:37:170:12:25 min/km
242Marjorie Quieng (1306)00:37:180:12:26 min/km
243Unknown Runner (1313)00:37:180:12:26 min/km
244Jenn Bangit (1920)00:37:190:12:26 min/km
245John Rafael Valdez (668)00:37:260:12:28 min/km
246Rommel Valdez (672)00:37:260:12:28 min/km
247Analie Golis (2152)00:37:260:12:28 min/km
248Karen Mae Maranan (1423)00:37:280:12:29 min/km
249Joanna Marie Anzures (1424)00:37:280:12:29 min/km
250Alecs Valdez (671)00:37:300:12:30 min/km
251Catherine Uminga (448)00:37:310:12:30 min/km
252Bianca Maureen Cabrera (449)00:37:310:12:30 min/km
253Marie Janice Co (1426)00:37:310:12:30 min/km
254Renee Elizabeth Cabrera (1382)00:37:330:12:31 min/km
255Ann Alvarez (937)00:37:360:12:32 min/km
256Ria Garzon (1724)00:37:360:12:32 min/km
257Jeremy Raquel (1111)00:37:380:12:32 min/km
258Ryan Avelino (2023)00:37:390:12:33 min/km
259Lerma Miranda (1636)00:37:410:12:33 min/km
260Myleen Regania (581)00:37:530:12:37 min/km
261Junmar Gozon (2185)00:37:530:12:37 min/km
262Ma. Luisa Abara (1449)00:37:540:12:38 min/km
263Homer Malveda (631)00:37:550:12:38 min/km
264Anna Camille Guisi (2355)00:37:560:12:38 min/km
265Kim Oliver Torino (845)00:37:590:12:39 min/km
266Unknown Runner (2425)00:37:590:12:39 min/km
267Benjamine Lagarde (474)00:38:010:12:40 min/km
268Aleli Reyes (2306)00:38:010:12:40 min/km
269Daniel Digan (2058)00:38:020:12:40 min/km
270Gerry Francisco (1268)00:38:040:12:41 min/km
271Rochel Aguila (2193)00:38:040:12:41 min/km
272Unknown Runner (2800)00:38:050:12:41 min/km
273Rosalie Esquillo (1591)00:38:120:12:44 min/km
274Allan Esquillo (1862)00:38:140:12:44 min/km
275Heidilyn Altavano (2046)00:38:220:12:47 min/km
276Unknown Runner (1337)00:38:260:12:48 min/km
277Rene Jay Janda (564)00:38:280:12:49 min/km
278Mechiel Ramirez (627)00:38:280:12:49 min/km
279Arcelyn Hermosa (2612)00:38:380:12:52 min/km
280Jadormio Jeronimo (1255)00:38:400:12:53 min/km
281Cornelia Berroya (2613)00:38:430:12:54 min/km
282Sharon Naguit (1492)00:38:450:12:55 min/km
283Dean Martin (691)00:38:460:12:55 min/km
284Unknown Runner (1499)00:38:490:12:56 min/km
285Rommel Jamias (963)00:38:500:12:56 min/km
286Jenifer Catalan (1435)00:38:520:12:57 min/km
287Arlyn Rusyl Osorio (39)00:38:530:12:57 min/km
288Unknown Runner (2702)00:38:540:12:58 min/km
289Unknown Runner (1307)00:38:550:12:58 min/km
290Cristen Casao (257)00:38:560:12:58 min/km
291Unknown Runner (1308)00:38:560:12:58 min/km
292Sarah Jane Ayco (256)00:38:580:12:59 min/km
293Romeo Briones (1820)00:38:590:12:59 min/km
294Gabriel Los Banos (1819)00:39:020:13:00 min/km
295Melvin Cabling (2829)00:39:040:13:01 min/km
296Sheryl Pasamba (145)00:39:110:13:03 min/km
297Alma Cabling (2830)00:39:110:13:03 min/km
298John Michael Eshera (2160)00:39:130:13:04 min/km
299Marian Ocampo (2159)00:39:150:13:05 min/km
300Unknown Runner (1045)00:39:190:13:06 min/km
301Clarita Elvira Guevarra (1582)00:39:190:13:06 min/km
302Maureen Joy Tiquia (1893)00:39:200:13:06 min/km
303Unknown Runner (2415)00:39:220:13:07 min/km
304Unknown Runner (2416)00:39:250:13:08 min/km
305Unknown Runner (2396)00:39:270:13:09 min/km
306Unknown Runner (2417)00:39:270:13:09 min/km
307Unknown Runner (2398)00:39:280:13:09 min/km
308Van Dorado (667)00:39:330:13:11 min/km
309Unknown Runner (2395)00:39:340:13:11 min/km
310Unknown Runner (2397)00:39:350:13:11 min/km
311Unknown Runner (2804)00:39:380:13:12 min/km
312Henrick Sy (2943)00:39:380:13:12 min/km
313Jesus Balignasa (568)00:39:430:13:14 min/km
314Veverly Pahati (1392)00:39:440:13:14 min/km
315Lowela Cuaton (650)00:39:460:13:15 min/km
316Kirstienne Abaday (558)00:39:490:13:16 min/km
317Eric Cuaton (651)00:39:500:13:16 min/km
318Unknown Runner (1036)00:39:520:13:17 min/km
319Lorenzon San Agustin (713)00:39:540:13:18 min/km
320Magdaleno Faron (1284)00:39:580:13:19 min/km
321Unknown Runner (1035)00:39:590:13:19 min/km
322Unknown Runner (1618)00:39:590:13:19 min/km
323Menandro Ray Mayores (2339)00:40:030:13:21 min/km
324Cecillia Christine Manuel (1285)00:40:040:13:21 min/km
325Ralph Intal (1370)00:40:060:13:22 min/km
326Cesar Pontanos (1774)00:40:060:13:22 min/km
327KEYA ERANA (2597)00:40:060:13:22 min/km
328Ina Bautista (1112)00:40:070:13:22 min/km
329Renee Rose Regania (580)00:40:090:13:23 min/km
330Rubie Aguas (2021)00:40:090:13:23 min/km
331Jenelyn Fumera (938)00:40:100:13:23 min/km
332David Salvador Palafix (130)00:40:130:13:24 min/km
333Ferdinand Palafix (131)00:40:150:13:25 min/km
334Shirley Chua (2071)00:40:160:13:25 min/km
335Unknown Runner (2687)00:40:160:13:25 min/km
336Francine Kirsten Patingo (1651)00:40:170:13:25 min/km
337Janis Dimaunahan (2070)00:40:170:13:25 min/km
338Che Francisco (1997)00:40:190:13:26 min/km
339Rebecca Miranda (1861)00:40:250:13:28 min/km
340Raol Cruz (2523)00:40:250:13:28 min/km
341Unknown Runner (2909)00:40:270:13:29 min/km
342Darlene Digan (2059)00:40:280:13:29 min/km
343Unknown Runner (2803)00:40:300:13:30 min/km
344Unknown Runner (1633)00:40:320:13:30 min/km
345Ernesto Rivera (380)00:40:330:13:31 min/km
346Reuben Carino (1081)00:40:350:13:31 min/km
347Marfil Mantica (2603)00:40:350:13:31 min/km
348Hannah Margaret Rabaja (2604)00:40:360:13:32 min/km
349Angela Martinez (330)00:40:570:13:39 min/km
350Archie Infeliz (2053)00:41:000:13:40 min/km
351Catherine Dela Cruz (2140)00:41:010:13:40 min/km
352Jobelle Novilla (1714)00:41:020:13:40 min/km
353Virgilio Diaz Jr (1594)00:41:050:13:41 min/km
354Pedro Sobrevinas (2307)00:41:070:13:42 min/km
355Unknown Runner (2810)00:41:080:13:42 min/km
356Marilyn Belostrino (118)00:41:130:13:44 min/km
357Unknown Runner (834)00:41:180:13:46 min/km
358Jocelyn Buday (109)00:41:190:13:46 min/km
359Agah Rei Buday (110)00:41:220:13:47 min/km
360Maria Charisse Lambino (2054)00:41:250:13:48 min/km
361Allan Escopete (2057)00:41:300:13:50 min/km
362Unknown Runner (2809)00:41:310:13:50 min/km
363Pia Angeuque Lambino (2055)00:41:390:13:53 min/km
364Charyl Quizmundo (2269)00:41:410:13:53 min/km
365Unknown Runner (2845)00:41:430:13:54 min/km
366Lean Ola (2361)00:41:490:13:56 min/km
367Ma. Cynthia Castillo (1877)00:41:530:13:57 min/km
368Clarissa Domingo (1871)00:41:560:13:58 min/km
369Michael Angelo Cabael (1437)00:41:590:13:59 min/km
370John Paolo Martin (374)00:42:020:14:00 min/km
371Glenny Jarin (391)00:42:080:14:02 min/km
372Genneth Melody Dumayas (1498)00:42:170:14:05 min/km
373Nerissa Austria (2747)00:42:180:14:06 min/km
374Valerie Malabriga (2893)00:42:240:14:08 min/km
375Herson Sy (2942)00:42:310:14:10 min/km
376Anthony Penalba (2003)00:42:340:14:11 min/km
377Paulina Buenvenida (1084)00:42:360:14:12 min/km
378Ken Clavano (1076)00:42:400:14:13 min/km
379Ellyza Myhre Pepito (1673)00:42:420:14:14 min/km
380Luie Angelo Canuto (1674)00:42:420:14:14 min/km
381Armie Mauriao (2527)00:42:570:14:19 min/km
382Jose Mari Santiago (1900)00:42:580:14:19 min/km
383Unknown Runner (1482)00:43:010:14:20 min/km
384Rommel Sarmeinto (2526)00:43:020:14:20 min/km
385Arman Tampan (1896)00:43:070:14:22 min/km
386Anne Marie Kalayag (1369)00:43:100:14:23 min/km
387Lojie Gayol (1373)00:43:130:14:24 min/km
388Gerhard Perez (1623)00:43:130:14:24 min/km
389Ma. Lourdes Cortez (1372)00:43:140:14:24 min/km
390Loretta Mae Patingo (1663)00:43:190:14:26 min/km
391Oliver Chan (2565)00:43:200:14:26 min/km
392Eireen Profugo (2241)00:43:280:14:29 min/km
393Angelique Ria Parca (909)00:43:320:14:30 min/km
394Jackielyn De Leon (1328)00:43:350:14:31 min/km
395Unknown Runner (2899)00:43:390:14:33 min/km
396Carmella Cantonjos (865)00:43:440:14:34 min/km
397Pennie Dionela (1958)00:43:440:14:34 min/km
398Benjie Alain Lerios (1495)00:43:510:14:37 min/km
399Franchesca Villadulid (2051)00:44:070:14:42 min/km
400Lanilin Espinoza (2050)00:44:090:14:43 min/km
401Malou Sta. maria (2268)00:44:150:14:45 min/km
402Marianne Novilla (1715)00:44:200:14:46 min/km
403Irene Jhoy Baclas (1872)00:44:220:14:47 min/km
404John Boreatti (1206)00:44:320:14:50 min/km
405Martin Aguilar (646)00:44:340:14:51 min/km
406Lian Himpisao (1227)00:44:400:14:53 min/km
407Marijo Diputado (2894)00:44:540:14:58 min/km
408Madelyn Joya (2748)00:44:570:14:59 min/km
409Rodel Torrente (198)00:45:020:15:00 min/km
410Paula Rivera (1124)00:45:090:15:03 min/km
411Unknown Runner (2083)00:45:320:15:10 min/km
412Bernadette Rebong (1624)00:45:370:15:12 min/km
413Grestel Ruiz Runner (113)00:45:380:15:12 min/km
414Princess Andres (2500)00:45:380:15:12 min/km
415Gerarda Cantalgo (1626)00:45:390:15:13 min/km
416Maria Cynthia Virrai (1625)00:45:540:15:18 min/km
417Renon Asilo (1329)00:46:270:15:29 min/km
418Emmanuel Cadavida (547)00:46:300:15:30 min/km
419Ma. Natividad De Lima (1598)00:46:370:15:32 min/km
420Unknown Runner (790)00:46:380:15:32 min/km
421Maoie Lizo (1858)00:46:470:15:35 min/km
422Julia Lizo (1857)00:46:510:15:37 min/km
423Noel Bondoc (727)00:46:570:15:39 min/km
424Pearl Chua (2473)00:47:040:15:41 min/km
425ARIES TAMISIS (2787)00:47:100:15:43 min/km
426GIANINA ISABEL DELOS SANTOS (2788)00:47:110:15:43 min/km
427Ma. Luisa Geguera (1585)00:47:120:15:44 min/km
428RAYMOND JOHN DOMINGO (2786)00:47:120:15:44 min/km
429Randy Banaag (1864)00:47:220:15:47 min/km
430Roderick Joselito Soriano (1897)00:47:300:15:50 min/km
431isabelita Montifar (2906)00:47:480:15:56 min/km
432Edehill Engcoy (2907)00:47:490:15:56 min/km
433Unknown Runner (1742)00:47:500:15:56 min/km
434Matthew Alexis Simbulan (2163)00:47:520:15:57 min/km
435Ma. Kristina Gregorio (2165)00:47:570:15:59 min/km
436Unknown Runner (2844)00:48:380:16:12 min/km
437Nina Belle Gawain (1611)00:48:390:16:13 min/km
438Justin Axcel Magpily (112)00:48:430:16:14 min/km
439Jean Magpily (114)00:48:460:16:15 min/km
440Angelo Magpily (111)00:48:470:16:15 min/km
441Eduard Sobrepena (1738)00:48:530:16:17 min/km
442Richard Lasap (1525)00:48:540:16:18 min/km
443Prince Aldwin Alojoda (545)00:49:010:16:20 min/km
444Unknown Runner (2947)00:49:040:16:21 min/km
445Jarry Jardio (1576)00:49:060:16:22 min/km
446Willy Catindig (1080)00:49:120:16:24 min/km
447Juanita Jocelyn Delos Reyes (1596)00:49:150:16:25 min/km
448Butch Ibanez (2188)00:49:200:16:26 min/km
449Unknown Runner (2595)00:49:250:16:28 min/km
450Hailey Cueras (2099)00:49:280:16:29 min/km
451Gilbert Cruz (1965)00:49:300:16:30 min/km
452Unknown Runner (2596)00:49:330:16:31 min/km
453Jennifer Alip (2215)00:49:340:16:31 min/km
454Alexis Simbulan (2167)00:49:390:16:33 min/km
455Unknown Runner (2408)00:50:120:16:44 min/km
456Mary Anthonette Simbulan (2164)00:50:190:16:46 min/km
457Criszelle Siaron (1695)00:50:200:16:46 min/km
458Elvin Javier (1696)00:50:230:16:47 min/km
459John Leo Viar (1275)00:50:270:16:49 min/km
460Angelina Bern Ruiz (185)00:50:470:16:55 min/km
461Celeste Apa (1066)00:50:540:16:58 min/km
462Unknown Runner (1019)00:51:080:17:02 min/km
463Lita Mary Runner (1606)00:51:170:17:05 min/km
464Unknown Runner (2593)00:51:190:17:06 min/km
465Unknown Runner (2594)00:51:220:17:07 min/km
466Romanito Patigdas (1522)00:51:280:17:09 min/km
467Diana Josephine Castillo (18)00:51:590:17:19 min/km
468Lorecel Golfo (543)00:52:040:17:21 min/km
469Lea Garcia (1964)00:52:050:17:21 min/km
470Marisse Delfin (2554)00:52:570:17:39 min/km
471Filinvest City Runner (1772)00:53:010:17:40 min/km
472Ma. Beth Santos (2139)00:53:020:17:40 min/km
473Unknown Runner (2589)00:53:070:17:42 min/km
474Evangeline Ruiz (186)00:53:160:17:45 min/km
475Krista marie Ferrer (569)00:53:250:17:48 min/km
476Ralph Jason Melendres (2630)00:53:440:17:54 min/km
477Maui Mercado (1244)00:53:490:17:56 min/km
478Bernadette Bruce (2226)00:53:570:17:59 min/km
479Unknown Runner (1506)00:54:030:18:01 min/km
480Lexlly Janeo (1577)00:54:110:18:03 min/km
481Regine Sanchez (1547)00:54:170:18:05 min/km
482Bholemen Ilem (2460)00:54:560:18:18 min/km
483Romina Austria (1990)00:55:020:18:20 min/km
484Johaney Manalastas (1567)00:55:060:18:22 min/km
485Dennis Neona (2328)00:56:260:18:48 min/km
486April Mercado (1242)00:56:270:18:49 min/km
487Maricel Alberto (1094)00:56:380:18:52 min/km
488Marivic Virador (2372)00:56:520:18:57 min/km
489Unknown Runner (2421)00:57:410:19:13 min/km
490Unknown Runner (2422)00:57:420:19:14 min/km
491Unknown Runner (2423)00:57:510:19:17 min/km
492Unknown Runner (2291)00:58:000:19:20 min/km
493Arvin Lim (1290)00:58:100:19:23 min/km
494Rosemarie Arciaga (2186)00:58:410:19:33 min/km
495Mary Frances Elegado (2377)00:58:550:19:38 min/km
496Mary Grace Elegado (2376)00:59:020:19:40 min/km
497Unknown Runner (2799)00:59:020:19:40 min/km
498Alessa Baldeo (1963)00:59:150:19:45 min/km
499Liezel Grace Castillo (735)00:59:460:19:55 min/km
500Baby Ann Rodrigo (2519)00:59:580:19:59 min/km
501Cristina Danica Castillo (736)01:00:010:20:00 min/km
502Regulo Credo Jr. (2507)01:00:050:20:01 min/km
503VEA GAYGON (2783)01:01:020:20:20 min/km
504Maribeth Reyes (1347)01:01:240:20:28 min/km
505Sherilyn Matalog (1303)01:01:430:20:34 min/km
506Bren Bren Tan (1130)01:01:500:20:36 min/km
507Keith Andrew San Agustin (1204)01:02:070:20:42 min/km
508Rhea Paras (1332)01:02:250:20:48 min/km
509Annaleen Noriega (2305)01:02:350:20:51 min/km
510Rodillo Magsipoc Jr. (1297)01:02:590:20:59 min/km
511Agie De Aro (2449)01:03:140:21:04 min/km
512Bong Macairan (2467)01:03:160:21:05 min/km
513Narilyn Abasola (1056)01:04:190:21:26 min/km
514Jubilee Paredes (987)01:04:250:21:28 min/km
515Melvin Meremilla (1055)01:04:250:21:28 min/km
516Ruperto Ladignun (1638)01:04:280:21:29 min/km
517Bernie Valenzuela (2512)01:05:170:21:45 min/km
518Raquel Joswe (9)01:05:210:21:47 min/km
519Rezia Joy Jianaran (2254)01:05:280:21:49 min/km
520Bong Servando (1946)01:05:360:21:52 min/km
521Mark Chua (1953)01:06:070:22:02 min/km
522Jaime Moradilla (2618)01:06:370:22:12 min/km
523Unknown Runner (1481)01:06:580:22:19 min/km
524John Mark Lachica (2518)01:07:300:22:30 min/km
525Toni Intengan (1957)01:07:320:22:30 min/km
526Marilou Macanas (2264)01:07:330:22:31 min/km
527Cherrie Ferrer (570)01:07:460:22:35 min/km
528Unknown Runner (1472)01:07:560:22:38 min/km
529Unknown Runner (809)01:08:590:22:59 min/km
530Renalyn Enriquez (2143)01:09:280:23:09 min/km
531Unknown Runner (2289)01:09:390:23:13 min/km
532Unknown Runner (1048)01:09:470:23:15 min/km
533Heidi Golangco (1107)01:10:500:23:36 min/km
534Unknown Runner (822)01:11:300:23:50 min/km
535Unknown Runner (823)01:11:320:23:50 min/km
536Unknown Runner (771)01:11:590:23:59 min/km
537Unknown Runner (2795)01:12:130:24:04 min/km
538Christine Flores (694)01:13:270:24:29 min/km
539Aira Runner (2952)01:13:350:24:31 min/km
540Unknown Runner (2297)01:13:430:24:34 min/km
541Vanessa Tamano (1397)01:13:580:24:39 min/km
542Josephine Maura Matabang (1458)01:14:140:24:44 min/km
543Kimo Gutierrez (2543)01:14:460:24:55 min/km
544Marissa Yalung (2542)01:14:470:24:55 min/km
545Rolan Mahilum (629)01:14:590:24:59 min/km
546Diana Esteves (2144)01:15:100:25:03 min/km
547Macky Makayan (1344)01:16:180:25:26 min/km
548Allan Jay Nunez (2103)01:16:200:25:26 min/km
549Roderick Yap (2981)01:16:590:25:39 min/km
550Ruben Darao (2502)01:17:030:25:41 min/km
551Sherwin Villaroel (2503)01:17:030:25:41 min/km
552Erwin Radolf Ocampo (2508)01:17:080:25:42 min/km
553Joey Buri (2513)01:17:090:25:43 min/km
554Lemuel Kiong (1108)01:17:350:25:51 min/km
555Katrina Merzi Guerra (1728)01:17:480:25:56 min/km
556Rodrigo Vierneza (2617)01:17:590:25:59 min/km
557Marjorie Gusto (2531)01:18:350:26:11 min/km
558Kim Mirasol (236)01:18:550:26:18 min/km
559Edward Ramilo (663)01:19:140:26:24 min/km
560Antonio Lopez (958)01:19:160:26:25 min/km
561Joseph Cambalisa (2446)01:19:250:26:28 min/km
562Benjamin Alcaraz Jr. (2824)01:20:260:26:48 min/km
563Ryan Oliver Magalong (360)01:20:430:26:54 min/km
564Unknown Runner (599)01:20:550:26:58 min/km
565Cynthia Yu-Duntz (1418)01:22:150:27:25 min/km
566Richard Duntz (1417)01:22:160:27:25 min/km
567Unknown Runner (2384)01:22:420:27:34 min/km
568Unknown Runner (2725)01:24:120:28:04 min/km
569Eric Santos (2029)01:24:460:28:15 min/km
570Dan Suarez (389)01:24:590:28:19 min/km
571Unknown Runner (2792)01:25:150:28:25 min/km
572Unknown Runner (152)01:25:160:28:25 min/km
573Unknown Runner (2793)01:25:160:28:25 min/km
574Kerrie Anne Villareal (523)01:25:400:28:33 min/km
575Joseph Edward Villareal (524)01:25:480:28:36 min/km
576Unknown Runner (826)01:26:000:28:40 min/km
577Adrianne Uy (1718)01:27:180:29:06 min/km
578Mark Anthony Alcantara (1093)01:27:260:29:08 min/km
579Unknown Runner (883)01:27:480:29:16 min/km
580Ailleen Besa (870)01:28:040:29:21 min/km
581Kim Agcaoili (1455)01:28:450:29:35 min/km
582Myra Tacderan (2553)01:29:070:29:42 min/km
583Teresita Aleorja (2308)01:29:300:29:50 min/km
584Larabee Eugenio (2091)01:29:430:29:54 min/km
585Frederick Austria (282)01:29:440:29:54 min/km
586Katrina Valondo (194)01:30:120:30:04 min/km
587Maria Cristina Balignasa (567)01:30:160:30:05 min/km
588Enrico Sta. Cruz (69)01:30:290:30:09 min/km
589Unknown Runner (1475)01:31:000:30:20 min/km
590Healthy Way Runner (1166)01:31:280:30:29 min/km
591Ruth Floresca (1816)01:31:400:30:33 min/km
592Christine Antonio (705)01:33:010:31:00 min/km
593Unknown Runner (819)01:33:400:31:13 min/km
594Erwin Antonto (70)01:34:450:31:35 min/km
595Raquel Rodriguez (704)01:34:450:31:35 min/km
596Eira Ignacio (1346)01:35:360:31:52 min/km
597Elyza Reyes (1345)01:35:440:31:54 min/km
598Rene Frondosa (2005)01:35:460:31:55 min/km
599Girlie Lastra (1452)01:35:480:31:56 min/km
600Unknown Runner (813)01:37:430:32:34 min/km
601Edward Gardon (1122)01:39:060:33:02 min/km
602Michelle Baldogo (1327)01:39:440:33:14 min/km
603Crizan Blanco (1085)01:40:060:33:22 min/km
604Unknown Runner (2736)01:42:370:34:12 min/km
605Unknown Runner (2672)01:43:100:34:23 min/km
606Bob Castilla (1853)01:43:530:34:37 min/km
607May Ann Manahan (2191)01:44:110:34:43 min/km
608Diana Laniog (223)01:44:260:34:48 min/km
609Unknown Runner (2294)01:44:590:34:59 min/km
610Unknown Runner (1729)01:45:150:35:05 min/km
611Unknown Runner (1151)01:46:240:35:28 min/km
612Ana Leticia Garcia (470)01:47:320:35:50 min/km
613Christian Mari Zamora (2882)01:48:420:36:14 min/km
614Ainslic Ines Velarde (1530)01:49:380:36:32 min/km
615Dennis Mendoza (2127)01:50:240:36:48 min/km
616Henrick Sy (2928)01:50:410:36:53 min/km
617Emmelsae Talaman (952)01:51:070:37:02 min/km
618Unknown Runner (2683)01:51:240:37:08 min/km
619Nathaniel Gorospe (867)01:51:460:37:15 min/km
620Unknown Runner (2281)01:54:000:38:00 min/km
621Joanna Cu (289)01:56:170:38:45 min/km
622Rizaldo Cruz (1628)01:57:100:39:03 min/km
623Karla Mae Domingo (2759)02:00:470:40:15 min/km
624Lindsay Bernardo (553)02:01:240:40:28 min/km
625Bryan Mallari (1541)02:02:250:40:48 min/km
626Arnold Alano (189)02:02:400:40:53 min/km
627RUNNR BGC Runner (1759)02:04:290:41:29 min/km
628Unknown Runner (1176)02:05:420:41:54 min/km
629Gabriel Sta Ana (500)02:11:550:43:58 min/km
630Albert King Garcia (565)02:17:170:45:45 min/km
631Archie Artessano (1884)02:17:280:45:49 min/km
632Unknown Runner (1745)02:27:330:49:11 min/km
633Camilo Vahi (982)02:29:220:49:47 min/km
634Unknown Runner (1770)02:33:050:51:01 min/km
Rank Name & BIB Time Pace
1Regie Lumawag (973)00:28:340:04:45 min/km
2March Paglinawan (2012)00:35:410:05:56 min/km
3Guillermo Aquino Jr (463)00:36:330:06:05 min/km
4Julius Gascon (1441)00:37:110:06:11 min/km
5Unknown Runner (2739)00:38:100:06:21 min/km
6Kyuchu Kim (2937)00:39:000:06:30 min/km
7Joey Lazaro (1526)00:39:420:06:37 min/km
8Angel Isles (2013)00:40:120:06:42 min/km
9Alfredo San Diego (2860)00:40:440:06:47 min/km
10Danilo Tolentino (2111)00:40:520:06:48 min/km
11Unknown Runner (2720)00:42:080:07:01 min/km
12Julius Arena (2008)00:42:270:07:04 min/km
13Garry Core (2002)00:42:300:07:05 min/km
14Jan Carlo Veridiano (561)00:42:500:07:08 min/km
15Arnol Jacob (218)00:43:120:07:12 min/km
16Emanuel Maliksi (2455)00:43:230:07:13 min/km
17Rafael Gardiola (2261)00:43:290:07:14 min/km
18Roy Madlangbayan (2457)00:43:310:07:15 min/km
19Mike SY (2453)00:43:350:07:15 min/km
20Jeff SY (2452)00:43:370:07:16 min/km
21Elvert Jacobe (200)00:43:490:07:18 min/km
22Roel Caldo (2479)00:44:000:07:20 min/km
23Kaye Lopez (1804)00:44:450:07:27 min/km
24Vanessa Obispo (1973)00:45:010:07:30 min/km
25James Ryan Sanchez (729)00:45:090:07:31 min/km
26Maria Julia Mamon (77)00:45:200:07:33 min/km
27Unknown Runner (887)00:45:260:07:34 min/km
28Luis Alandy (1431)00:45:410:07:36 min/km
29Larry Biocarles (1182)00:45:520:07:38 min/km
30April Grace Bola (1180)00:45:550:07:39 min/km
31Matton SY (2450)00:46:060:07:41 min/km
32Achie Dayrit (2471)00:46:120:07:42 min/km
33Unknown Runner (1708)00:46:270:07:44 min/km
34Ella Camatog (2456)00:46:340:07:45 min/km
35Unknown Runner (615)00:46:410:07:46 min/km
36Ruby Gan (268)00:47:120:07:52 min/km
37Unknown Runner (1148)00:47:200:07:53 min/km
38Unknown Runner (1149)00:47:210:07:53 min/km
39Rosalie Del Valle (30)00:47:390:07:56 min/km
40Neil Miranda (2200)00:47:420:07:57 min/km
41Ferdinand Tumulak (697)00:47:500:07:58 min/km
42Unknown Runner (1026)00:47:530:07:58 min/km
43Joel Orellana (1975)00:47:560:07:59 min/km
44Joselle Fernandez (1430)00:48:090:08:01 min/km
45Shara Jaime Clemente (1274)00:48:130:08:02 min/km
46Mary Ann Deray (1595)00:49:020:08:10 min/km
47Jonnie Alarcon (2004)00:49:030:08:10 min/km
48Richard Ponti (1404)00:49:130:08:12 min/km
49Joevel Rivera (1126)00:49:310:08:15 min/km
50Ronald Josef Ballentes (1721)00:49:460:08:17 min/km
51Unknown Runner (1147)00:49:490:08:18 min/km
52Virgilio Frejas (234)00:50:320:08:25 min/km
53Unknown Runner (1025)00:51:040:08:30 min/km
54Carlo Cabardo (851)00:51:150:08:32 min/km
55Raniel Yago (1685)00:51:150:08:32 min/km
56Unknown Runner (2442)00:51:160:08:32 min/km
57Carlo Goguanco (871)00:51:220:08:33 min/km
58Kathryn Goguanco (872)00:51:220:08:33 min/km
59Lawrence Jay Goguanco (869)00:51:230:08:33 min/km
60Edward Joseph Lorenz Tiamsim (385)00:51:380:08:36 min/km
61Marion Hagoriles (777)00:51:490:08:38 min/km
62Jonathan Capili (2609)00:52:230:08:43 min/km
63Kevin Ringor (560)00:52:240:08:44 min/km
64Sherley Torres (321)00:52:270:08:44 min/km
65Baby Girl Rosales (621)00:52:310:08:45 min/km
66Unknown Runner (2586)00:52:370:08:46 min/km
67Mary Jill Bagasino (840)00:52:480:08:48 min/km
68Joannes Paulus Adoremus (1646)00:52:490:08:48 min/km
69Adonis Himpisalla (850)00:52:510:08:48 min/km
70Mary Ervie Boongaling (841)00:52:530:08:48 min/km
71Paola Francisco (1652)00:52:550:08:49 min/km
72Alvin Francis Bustillo (2151)00:53:050:08:50 min/km
73Unknown Runner (2590)00:53:050:08:50 min/km
74Melvin Ramillo (2107)00:53:110:08:51 min/km
75Dianne Evangelista (388)00:53:290:08:54 min/km
76Unknown Runner (2079)00:53:290:08:54 min/km
77Elvin Zuniga (1683)00:53:300:08:55 min/km
78Eldrige Palmado (1212)00:53:340:08:55 min/km
79Glen Merto (1716)00:53:340:08:55 min/km
80Wilfredo Pangan (2125)00:53:380:08:56 min/km
81Richard Batiansela (2634)00:53:410:08:56 min/km
82Manuel Leyva (2197)00:53:510:08:58 min/km
83Rophel Omal (852)00:53:520:08:58 min/km
84Charlie Velasco (1260)00:54:020:09:00 min/km
85Unknown Runner (1031)00:54:040:09:00 min/km
86Rhea Capistrano (1947)00:54:070:09:01 min/km
87Mark Anthony Javiero (384)00:54:080:09:01 min/km
88Unknown Runner (1466)00:54:210:09:03 min/km
89Analyn Bafe (2447)00:54:360:09:06 min/km
90Diinnes Godao (2463)00:54:430:09:07 min/km
91Rhona Rodriguez (874)00:54:460:09:07 min/km
92Syarbol Fabellon (1523)00:54:480:09:08 min/km
93Jalen Lizo (1856)00:54:520:09:08 min/km
94Mary Alessandria Ty (996)00:54:540:09:09 min/km
95Noli Norado (864)00:55:000:09:10 min/km
96Rex Ata (1088)00:55:020:09:10 min/km
97Rick Paredez (2476)00:55:130:09:12 min/km
98Unknown Runner (2724)00:55:390:09:16 min/km
99Neal Sandstroni (637)00:55:410:09:16 min/km
100Nina Abegail Panaugan (634)00:55:430:09:17 min/km
101Alianna Marie Santos (455)00:56:010:09:20 min/km
102Unknown Runner (2671)00:56:090:09:21 min/km
103Bernie Ruiz (187)00:56:100:09:21 min/km
104Catherine Cortez (2132)00:56:100:09:21 min/km
105Joseph Martinez (1448)00:56:110:09:21 min/km
106Mark Aguinaldo (2633)00:56:130:09:22 min/km
107Ronald Dela Pena (2478)00:56:150:09:22 min/km
108Malcolm Bojador (2488)00:56:240:09:24 min/km
1091vincent Lacap (2238)00:56:260:09:24 min/km
110Remilo Mariano (2309)00:56:460:09:27 min/km
111Unknown Runner (742)00:57:010:09:30 min/km
112Norberto Aguila (2194)00:57:190:09:33 min/km
113Unknown Runner (2842)00:57:260:09:34 min/km
114Carmelito Jaojoco (2817)00:57:270:09:34 min/km
115Unknown Runner (2841)00:57:270:09:34 min/km
116Emil Cabero (1682)00:57:320:09:35 min/km
117Rodel Dejumo (2266)00:57:560:09:39 min/km
118John Carlo Talisic (2270)00:58:000:09:40 min/km
119Jerry Cabanilla (2267)00:58:010:09:40 min/km
120Armand Lasquete (2461)00:58:110:09:41 min/km
121Brian Trias (2271)00:58:130:09:42 min/km
122Joseph Ryan Retiro (1222)00:58:150:09:42 min/km
123Edred Delos Reyes (2087)00:58:270:09:44 min/km
124Leilanoi Sanchez (2753)00:58:350:09:45 min/km
125Joseph Dela Fuente (1793)00:58:440:09:47 min/km
126Jude Sanchez Jr. (2754)00:58:440:09:47 min/km
127Charity Joy Vargas (2546)00:59:050:09:50 min/km
128Arthur Lague (147)00:59:150:09:52 min/km
129Charis Bacolod (2760)00:59:160:09:52 min/km
130Glenn Pili (2761)00:59:160:09:52 min/km
131Rhommel Rodriguez (880)00:59:300:09:55 min/km
132Unknown Runner (744)00:59:320:09:55 min/km
133Mel Serrano (2994)00:59:360:09:56 min/km
134Unknown Runner (1474)00:59:390:09:56 min/km
135Albert Sevilla (1898)00:59:390:09:56 min/km
136Melissa Serrano (2995)00:59:400:09:56 min/km
137Greg Emerson Manses (36)00:59:420:09:57 min/km
138Budoy Lorenzo (1619)00:59:460:09:57 min/km
139Alexis Valente (2353)00:59:470:09:57 min/km
140Lenin Tolentino (1620)00:59:480:09:58 min/km
141Marvin Atienza (2354)00:59:480:09:58 min/km
142Jhaye Claro (402)00:59:520:09:58 min/km
143Michael Claro (403)00:59:580:09:59 min/km
144Unknown Runner (2843)01:00:040:10:00 min/km
145Marife Medrano (2170)01:00:080:10:01 min/km
146Solo Taruc (62)01:00:200:10:03 min/km
147Unknown Runner (759)01:00:250:10:04 min/km
148Rackie Lou Jaojoco (2821)01:00:340:10:05 min/km
149Iya Ladignun (1640)01:00:350:10:05 min/km
150Unknown Runner (2592)01:00:400:10:06 min/km
151Unknown Runner (1348)01:00:520:10:08 min/km
152Roby Amil (2145)01:00:560:10:09 min/km
153Mary Abigail Ty (999)01:00:590:10:09 min/km
154Unknown Runner (1349)01:00:590:10:09 min/km
155Paul Rainer Uy (1889)01:01:020:10:10 min/km
156Divina Abundo (2043)01:01:030:10:10 min/km
157Unknown Runner (179)01:01:050:10:10 min/km
158Unknown Runner (180)01:01:060:10:11 min/km
159Gemino Canobas (548)01:01:110:10:11 min/km
160Unknown Runner (1038)01:01:120:10:12 min/km
161Polo Himoc (2133)01:01:130:10:12 min/km
162Eric Cawaing (1239)01:01:210:10:13 min/km
163Unknown Runner (178)01:01:220:10:13 min/km
164Jona Demia Dumayas (1493)01:01:270:10:14 min/km
165Christopher Alejo (577)01:01:280:10:14 min/km
166Dandy Fernandez (2045)01:01:310:10:15 min/km
167Unknown Runner (959)01:01:450:10:17 min/km
168Roy Penaflor (1266)01:01:500:10:18 min/km
169Hilda Biocarles (1181)01:01:520:10:18 min/km
170John De Zuniga (1267)01:01:530:10:18 min/km
171Andrew Barcelona (2177)01:01:540:10:19 min/km
172Katrina Lauren Arciaga (2746)01:01:540:10:19 min/km
173Pamela Garcia (2217)01:01:580:10:19 min/km
174Migell Karlo Santos (906)01:02:010:10:20 min/km
175Marc Joseph Villate (2487)01:02:040:10:20 min/km
176Yellyn Porto (1218)01:02:180:10:23 min/km
177Unknown Runner (1335)01:02:200:10:23 min/km
178Grace Alonzo (1845)01:02:210:10:23 min/km
179Germaine Paz Borres (37)01:02:220:10:23 min/km
180Princess Sarah Rodillas (1659)01:02:350:10:25 min/km
181Marigrace Felicia (1385)01:02:390:10:26 min/km
182Ryan Ric Santos (8)01:02:500:10:28 min/km
183Ma. Fe Camacam (1299)01:03:020:10:30 min/km
184Avelina Gasmen (6)01:03:120:10:32 min/km
185Unknown Runner (2733)01:03:140:10:32 min/km
186Dianne Runner (2934)01:03:220:10:33 min/km
187Unknown Runner (2424)01:03:230:10:33 min/km
188Abigail Joyce Garcia (2758)01:03:230:10:33 min/km
189Cyril Laboga (2192)01:03:250:10:34 min/km
190Regina Amil (2146)01:03:310:10:35 min/km
191Nicole Grace Ramillo (2105)01:03:350:10:35 min/km
192Paul John Almario (398)01:03:400:10:36 min/km
193Elpidio III Arriola (1089)01:03:440:10:37 min/km
194Karen Amol (274)01:03:470:10:37 min/km
195Henry Portento (2234)01:03:550:10:39 min/km
196Rosevie Alvit (514)01:04:120:10:42 min/km
197Unknown Runner (2428)01:04:130:10:42 min/km
198Maria Katrina Mariano (248)01:04:150:10:42 min/km
199Froilan Zaraspe (372)01:04:150:10:42 min/km
200Saidomen Sarip (1402)01:04:160:10:42 min/km
201Irvin Neil Esperida (676)01:04:170:10:42 min/km
202Regine Paredes (988)01:04:180:10:43 min/km
203John Frederick Fermo (1272)01:04:210:10:43 min/km
204Unknown Runner (2656)01:04:300:10:45 min/km
205Shirley Accad (2034)01:04:350:10:45 min/km
206Unknown Runner (2638)01:04:350:10:45 min/km
207Ken Perez (847)01:04:380:10:46 min/km
208Jecca Pulyan (2015)01:05:030:10:50 min/km
209Tenny Gonzales (981)01:05:130:10:52 min/km
210Jovillar Profugo (2242)01:05:280:10:54 min/km
211Jeremy Techico (1951)01:05:300:10:55 min/km
212Dan Adrian Caronongan (1388)01:05:310:10:55 min/km
213Donavan John Roma (2858)01:05:360:10:56 min/km
214Joe Vincent Gasmen (5)01:05:490:10:58 min/km
215Grace David (2806)01:06:010:11:00 min/km
216Jhovie Carenjuian (2469)01:06:020:11:00 min/km
217Unknown Runner (2587)01:06:020:11:00 min/km
218Rizalino Guritang (357)01:06:040:11:00 min/km
219Daniel Guasis (1203)01:06:050:11:00 min/km
220Unknown Runner (1405)01:06:050:11:00 min/km
221Christine Ann Mercado (1241)01:06:090:11:01 min/km
222Mark Lorenzo (846)01:06:100:11:01 min/km
223Unknown Runner (1334)01:06:130:11:02 min/km
224Mary Joyce Brito (2341)01:06:220:11:03 min/km
225Unknown Runner (2731)01:06:220:11:03 min/km
226Unknown Runner (807)01:06:260:11:04 min/km
227Jennifer Valenzuela (464)01:06:290:11:04 min/km
228Abel Landicho (2635)01:06:290:11:04 min/km
229Gilisa Landicho (2636)01:06:300:11:05 min/km
230Domingo Martinez (2219)01:06:340:11:05 min/km
231Unknown Runner (806)01:06:360:11:06 min/km
232Michael Hortaleza (2776)01:06:370:11:06 min/km
233Bernardine Dela Cruz (1293)01:06:480:11:08 min/km
234Unknown Runner (2781)01:07:040:11:10 min/km
235Erin Calaquian (1630)01:07:210:11:13 min/km
236Unknown Runner (2388)01:07:210:11:13 min/km
237Unknown Runner (1311)01:07:280:11:14 min/km
238Maria Shiela Celo (935)01:07:290:11:14 min/km
239Jun Samson (1879)01:07:300:11:15 min/km
240Unknown Runner (2427)01:07:310:11:15 min/km
241Lee Narciso (1064)01:07:330:11:15 min/km
242John Adrian Mariano (2763)01:07:370:11:16 min/km
243Jacqueline Groyon (2033)01:07:380:11:16 min/km
244Unknown Runner (2288)01:07:380:11:16 min/km
245Unknown Runner (2426)01:07:400:11:16 min/km
246Unknown Runner (2655)01:07:430:11:17 min/km
247Unknown Runner (2287)01:07:440:11:17 min/km
248Justine Joy Pacis (1641)01:07:470:11:17 min/km
249Unknown Runner (2387)01:07:480:11:18 min/km
250Mary Allyson Ty (997)01:07:490:11:18 min/km
251Jose Ramiro Fonacier (2299)01:07:500:11:18 min/km
252Unknown Runner (1154)01:08:050:11:20 min/km
253Joaquin Sanchez (2752)01:08:150:11:22 min/km
254Unknown Runner (1153)01:08:160:11:22 min/km
255Unknown Runner (2689)01:08:180:11:23 min/km
256Jenifer Mercado (2255)01:08:370:11:26 min/km
257Japeth Mahinay (1240)01:08:390:11:26 min/km
258Czarecah Oropilla (1129)01:08:400:11:26 min/km
259Unknown Runner (1013)01:08:520:11:28 min/km
260Unknown Runner (1014)01:08:530:11:28 min/km
261CJ Custodio (2480)01:08:530:11:28 min/km
262Unknown Runner (810)01:08:580:11:29 min/km
263Rey Sambrano (2027)01:09:010:11:30 min/km
264Charisse Himpisao (1228)01:09:140:11:32 min/km
265Unknown Runner (761)01:09:270:11:34 min/km
266Unknown Runner (533)01:09:340:11:35 min/km
267Unknown Runner (803)01:09:430:11:37 min/km
268Unknown Runner (1511)01:09:430:11:37 min/km
269Unknown Runner (2796)01:09:450:11:37 min/km
270Mark Jason Freo (2221)01:09:520:11:38 min/km
271Krystal Garcia (644)01:09:570:11:39 min/km
272Unknown Runner (2715)01:10:060:11:41 min/km
273Unknown Runner (2677)01:10:100:11:41 min/km
274Jane Atienza (2259)01:10:120:11:42 min/km
275Marvin Morillo (2260)01:10:210:11:43 min/km
276Rooney Jason Suacillo (2062)01:10:330:11:45 min/km
277Unknown Runner (2659)01:10:360:11:46 min/km
278Unknown Runner (2660)01:10:380:11:46 min/km
279Ambell Himpisao (1229)01:10:390:11:46 min/km
280Unknown Runner (2283)01:10:400:11:46 min/km
281Sheriemee Tan (1106)01:10:450:11:47 min/km
282Unknown Runner (2285)01:10:480:11:48 min/km
283Unknown Runner (896)01:10:500:11:48 min/km
284Unknown Runner (2284)01:10:520:11:48 min/km
285Unknown Runner (2386)01:11:000:11:50 min/km
286Maria Edwina Paz (617)01:11:110:11:51 min/km
287Carla Monica Gorospe (14)01:11:290:11:54 min/km
288Antonio Siha (1109)01:11:320:11:55 min/km
289Unknown Runner (2439)01:11:370:11:56 min/km
290Christopher Lorden Patingo (1648)01:11:470:11:57 min/km
291Arrien Brucal (936)01:11:500:11:58 min/km
292Charles Raval (933)01:11:530:11:58 min/km
293Edwin Maliksi (2475)01:11:540:11:59 min/km
294Dayrine Escanan (2017)01:12:010:12:00 min/km
295Unknown Runner (150)01:12:020:12:00 min/km
296Unknown Runner (151)01:12:040:12:00 min/km
297Unknown Runner (2805)01:12:120:12:02 min/km
298Unknown Runner (1512)01:12:140:12:02 min/km
299Unknown Runner (2797)01:12:150:12:02 min/km
300James Sy (420)01:12:160:12:02 min/km
301Unknown Runner (2798)01:12:190:12:03 min/km
302Daniel Carl Garcia (1460)01:12:200:12:03 min/km
303Unknown Runner (749)01:12:220:12:03 min/km
304Cindy Panerio (1870)01:12:230:12:03 min/km
305Unknown Runner (762)01:12:310:12:05 min/km
306Unknown Runner (2808)01:12:380:12:06 min/km
307Mylene Tezon (423)01:12:390:12:06 min/km
308Unknown Runner (2676)01:12:400:12:06 min/km
309Unknown Runner (2782)01:12:440:12:07 min/km
310Jerome Portento (2235)01:12:460:12:07 min/km
311Pearly Joy Gatinao (1586)01:12:470:12:07 min/km
312Antrone Aladino Jr (588)01:12:540:12:09 min/km
313Princess Nicole Belen (1727)01:12:550:12:09 min/km
314Jenefer Juco (1246)01:12:560:12:09 min/km
315Marie Grace Bautista (2063)01:13:050:12:10 min/km
316Unknown Runner (616)01:13:070:12:11 min/km
317Denver Joseph Chan (2066)01:13:090:12:11 min/km
318Paola Buan (597)01:13:130:12:12 min/km
319Bernard Hilomen (2090)01:13:200:12:13 min/km
320Alex Pambid (1560)01:13:220:12:13 min/km
321Bianca Pambid (1867)01:13:230:12:13 min/km
322Leonardo Latorre (390)01:13:520:12:18 min/km
323Junelyn Lombos (2039)01:13:520:12:18 min/km
324Ceila Grace Canlas (295)01:13:580:12:19 min/km
325Mark Lester Vidamo (2040)01:13:580:12:19 min/km
326Connie Fernandez (2061)01:13:590:12:19 min/km
327Joel Alzona (2870)01:14:000:12:20 min/km
328Lizette Sampang (296)01:14:070:12:21 min/km
329Raymod Alpay (86)01:14:080:12:21 min/km
330Unknown Runner (961)01:14:150:12:22 min/km
331Mark Hiro Nakagawa (934)01:14:230:12:23 min/km
332Unknown Runner (772)01:14:330:12:25 min/km
333Unknown Runner (610)01:14:570:12:29 min/km
334Alma Genetiano (1440)01:15:040:12:30 min/km
335Jonathan Barez (525)01:15:060:12:31 min/km
336Francis Gabriel Orduna (1270)01:15:140:12:32 min/km
337Jorge Patrick Dumayas (1497)01:15:140:12:32 min/km
338Maria Lina Cortezano (1072)01:15:160:12:32 min/km
339Michael John Ray Ilog (1580)01:15:170:12:32 min/km
340Malou Caayao (422)01:15:200:12:33 min/km
341Ruth Malia (983)01:15:330:12:35 min/km
342Alyssa Mae Cabrera (1304)01:15:360:12:36 min/km
343Unknown Runner (2723)01:15:440:12:37 min/km
344Unknown Runner (2726)01:15:470:12:37 min/km
345Cherry Galindo (715)01:16:080:12:41 min/km
346Christine Makayan (1343)01:16:150:12:42 min/km
347Unknown Runner (757)01:16:200:12:43 min/km
348Rolan Cera (2458)01:16:220:12:43 min/km
349Andronico Sy (235)01:16:230:12:43 min/km
350Jahaira Fortes (563)01:16:270:12:44 min/km
351Unknown Runner (758)01:16:290:12:44 min/km
352Marigrace Magsipoc (1298)01:16:290:12:44 min/km
353Ryan Ponce (87)01:16:400:12:46 min/km
354Unknown Runner (1462)01:16:410:12:46 min/km
355Nestor Von Bron (273)01:16:420:12:47 min/km
356Noemi Bueno (442)01:16:450:12:47 min/km
357Jahzeel Rose Asuncion (2363)01:16:450:12:47 min/km
358Maria Elisa Vidallo (2357)01:16:460:12:47 min/km
359Jezreel Ambita (2358)01:16:480:12:48 min/km
360Lloyd Beltran (2365)01:16:520:12:48 min/km
361Unknown Runner (831)01:16:540:12:49 min/km
362Neil Patrick Buena (1201)01:16:550:12:49 min/km
363Unknown Runner (2409)01:16:580:12:49 min/km
364Deanna Jane Montoya (1258)01:16:590:12:49 min/km
365Glenn Arandia (1259)01:17:010:12:50 min/km
366Unknown Runner (2082)01:17:040:12:50 min/km
367Eric Bauls (2172)01:17:080:12:51 min/km
368May Decena (1869)01:17:160:12:52 min/km
369Unknown Runner (962)01:17:230:12:53 min/km
370Rochelle Santos (221)01:17:280:12:54 min/km
371Unknown Runner (1484)01:17:280:12:54 min/km
372Paul Tan (2202)01:17:330:12:55 min/km
373Leah Hanan Genetiano (1439)01:17:370:12:56 min/km
374Darla Bernadette Swing (873)01:17:430:12:57 min/km
375Rhoziele Swing (876)01:17:430:12:57 min/km
376Unknown Runner (2675)01:17:450:12:57 min/km
377Maricel Sierra (2274)01:17:530:12:58 min/km
378Dennis Pabilonia (1750)01:17:570:12:59 min/km
379Unknown Runner (2729)01:18:020:13:00 min/km
380Unknown Runner (750)01:18:030:13:00 min/km
381Diego Macias (1656)01:18:090:13:01 min/km
382Jezzele Bayolot (518)01:18:150:13:02 min/km
383Unknown Runner (549)01:18:160:13:02 min/km
384Aileen Dayondon (1233)01:18:540:13:09 min/km
385Thec Pallera (2098)01:18:550:13:09 min/km
386Katherine Ngo (231)01:19:070:13:11 min/km
387Unknown Runner (1357)01:19:090:13:11 min/km
388Jester Temporado (2351)01:19:130:13:12 min/km
389Unknown Runner (2737)01:19:240:13:14 min/km
390Anna Rose Tiopez (2273)01:19:250:13:14 min/km
391Joel Marinay (122)01:19:290:13:14 min/km
392Unknown Runner (885)01:19:510:13:18 min/km
393Ric Mongalo (977)01:19:580:13:19 min/km
394Lorie Vi Ariane Paringit (2491)01:20:030:13:20 min/km
395Edzel Licayan (1053)01:20:120:13:22 min/km
396Unknown Runner (1486)01:20:170:13:22 min/km
397Unknown Runner (756)01:20:190:13:23 min/km
398Mark Ryan Decena (1597)01:20:250:13:24 min/km
399Jeffrey Novilla (1717)01:20:300:13:25 min/km
400Leonardo Mallari (2605)01:20:300:13:25 min/km
401Arlene Mallari (2606)01:20:320:13:25 min/km
402Unknown Runner (2730)01:20:400:13:26 min/km
403Ana Matubis (1341)01:20:460:13:27 min/km
404Unknown Runner (2674)01:20:550:13:29 min/km
405Unknown Runner (1485)01:20:570:13:29 min/km
406Venice Rose Irorita (2231)01:21:220:13:33 min/km
407Ryan Rosales (2232)01:21:220:13:33 min/km
408Unknown Runner (770)01:21:320:13:35 min/km
409Gilbert Ngo (419)01:21:380:13:36 min/km
410Editha Bravo Pascual (915)01:21:420:13:37 min/km
411Ramielle Joie Quinto (2535)01:21:420:13:37 min/km
412Rafael Pascual (916)01:21:440:13:37 min/km
413Ermalyn Dela Pena (2350)01:21:500:13:38 min/km
414Stephanie Tatel (930)01:21:510:13:38 min/km
415Mary James Pacheco (466)01:21:520:13:38 min/km
416Jessy Lou Palma (662)01:21:530:13:38 min/km
417Unknown Runner (2836)01:22:020:13:40 min/km
418Unknown Runner (2837)01:22:030:13:40 min/km
419Vimechell Cayabyab (94)01:22:040:13:40 min/km
420Vanessa Joy Macatangay (2348)01:22:140:13:42 min/km
421Frederic Ocampo (2321)01:22:170:13:42 min/km
422Beverly Panganiban (2349)01:22:170:13:42 min/km
423Jean Petersean Matias (620)01:22:180:13:43 min/km
424Jelvin Ramonel (2360)01:22:290:13:44 min/km
425Onchie Garces (2896)01:22:560:13:49 min/km
426Unknown Runner (2735)01:23:150:13:52 min/km
427Unknown Runner (827)01:23:170:13:52 min/km
428Honeylane Damaso (1054)01:23:230:13:53 min/km
429Unknown Runner (828)01:23:260:13:54 min/km
430Reuben Glipo (1737)01:23:300:13:55 min/km
431Ferdinand Allan Elegado (2378)01:23:360:13:56 min/km
432Charles Carino (1736)01:23:420:13:57 min/km
433Unknown Runner (1507)01:23:500:13:58 min/km
434Rhoel Fernandez (1996)01:23:580:13:59 min/km
435Unknown Runner (2707)01:24:090:14:01 min/km
436Joseph Domingo (2521)01:24:190:14:03 min/km
437Leruin Estacio (778)01:24:220:14:03 min/km
438Unknown Runner (2081)01:25:280:14:14 min/km
439Charo Ocampo (2320)01:25:290:14:14 min/km
440Jerick Sistado (2031)01:25:450:14:17 min/km
441Unknown Runner (740)01:25:530:14:18 min/km
442Carl Sioson (2895)01:26:010:14:20 min/km
443Anna Rocel Runner (1356)01:26:060:14:21 min/km
444Kenneth Mayoca (2608)01:26:080:14:21 min/km
445Aldrick Dennis Samano (698)01:26:170:14:22 min/km
446Laricel Zyra Bunao (1355)01:26:280:14:24 min/km
447Dominic Camara (2346)01:26:290:14:24 min/km
448Wilhelmina Cabagui (2178)01:26:300:14:25 min/km
449Jo Ann Pagulayan (2347)01:26:310:14:25 min/km
450Michelle Grace Sibug (678)01:27:090:14:31 min/km
451Angelo James Banas (2317)01:27:120:14:32 min/km
452Sherina Mae Acupan (1878)01:27:150:14:32 min/km
453Herson Sy (2945)01:27:150:14:32 min/km
454Unknown Runner (817)01:28:010:14:40 min/km
455Marco Gregorio (1287)01:28:010:14:40 min/km
456Unknown Runner (818)01:28:020:14:40 min/km
457Valerie Lagarde (473)01:28:140:14:42 min/km
458Unknown Runner (824)01:28:320:14:45 min/km
459Arriane Deleon (775)01:28:350:14:45 min/km
460Alex Asgali (970)01:28:380:14:46 min/km
461Charlette Chan (2068)01:28:460:14:47 min/km
462Christian Gacias (1490)01:28:550:14:49 min/km
463Cristina Reyes (2196)01:28:560:14:49 min/km
464Jocelyn Gamboa (2195)01:28:570:14:49 min/km
465Cris Marie Ann Saylon (2852)01:28:580:14:49 min/km
466Marites Pangilinan (2820)01:29:080:14:51 min/km
467Ken Uba (1891)01:29:130:14:52 min/km
468Jourgen Villegas (1231)01:29:230:14:53 min/km
469Fritzi Anne Dimaunahan (2867)01:29:290:14:54 min/km
470Unknown Runner (890)01:29:430:14:57 min/km
471Nina Tatad (1894)01:29:580:14:59 min/km
472Unknown Runner (820)01:30:310:15:05 min/km
473Eleazar Barruel (382)01:30:370:15:06 min/km
474Unknown Runner (1028)01:30:370:15:06 min/km
475Pacis Runner (196)01:30:470:15:07 min/km
476Jenessa Rivera (2136)01:30:580:15:09 min/km
477Bettina Escala (2773)01:31:070:15:11 min/km
478Tisha Alcantara (1491)01:31:350:15:15 min/km
479Johanna Ciara Paula Bernardo (2112)01:31:440:15:17 min/km
480Marie Austria (1678)01:31:450:15:17 min/km
481Hazel Arellano (1210)01:31:530:15:18 min/km
482Francisca Dimatatac (283)01:32:130:15:22 min/km
483Warwikh Oyco (366)01:32:170:15:22 min/km
484Myln Limjap (2080)01:32:490:15:28 min/km
485Emerson Galvez (509)01:32:520:15:28 min/km
486Unknown Runner (2679)01:32:530:15:28 min/km
487Mary Ann Sioson (367)01:33:020:15:30 min/km
488Kathleen Fances Membela (1552)01:33:080:15:31 min/km
489Sheena Mongalo (976)01:33:090:15:31 min/km
490Unknown Runner (741)01:33:260:15:34 min/km
491Kathryn Patricio (383)01:33:470:15:37 min/km
492Crimson Hotel Runner (1193)01:33:530:15:38 min/km
493Airon Aguirre (2625)01:34:210:15:43 min/km
494Josephine Cahilig (2851)01:34:370:15:46 min/km
495Mary Chrisitine Alegria (1116)01:35:090:15:51 min/km
496Unknown Runner (791)01:35:100:15:51 min/km
497Laurence Juliano (286)01:35:120:15:52 min/km
498Melvin Tayamora (1234)01:35:150:15:52 min/km
499Joshua Lintag (314)01:36:050:16:00 min/km
500Unknown Runner (2430)01:36:180:16:03 min/km
501Unknown Runner (2278)01:36:260:16:04 min/km
502Unknown Runner (613)01:36:380:16:06 min/km
503Unknown Runner (2686)01:37:130:16:12 min/km
504Unknown Runner (1011)01:37:140:16:12 min/km
505Mark Santos (2926)01:37:570:16:19 min/km
506Wilson Ludivic Te (1709)01:38:030:16:20 min/km
507Gerald Macapagal (1960)01:38:030:16:20 min/km
508Martina Macias (1657)01:38:090:16:21 min/km
509Dondi Nunez (1712)01:38:140:16:22 min/km
510Cesar Salera (647)01:38:190:16:23 min/km
511Michelle Anastacio (1342)01:38:550:16:29 min/km
512Alvin Bognot (1450)01:38:570:16:29 min/km
513Edickson Mendoza (2364)01:39:010:16:30 min/km
514Glenn Reyes (674)01:39:060:16:31 min/km
515Myrna Dimayacyac (1059)01:39:060:16:31 min/km
516Allene Pena (1060)01:39:060:16:31 min/km
517Erwin Dimayacyac (1061)01:39:060:16:31 min/km
518Honorato Torres (1062)01:39:060:16:31 min/km
519Unknown Runner (1015)01:39:310:16:35 min/km
520Unknown Runner (1016)01:39:320:16:35 min/km
521Unknown Runner (862)01:39:460:16:37 min/km
522Mark Ortiz (859)01:39:480:16:38 min/km
523Jimmy Runner (1883)01:40:130:16:42 min/km
524Paolo Garcia (1873)01:40:170:16:42 min/km
525Allan Jay Castrometro (2812)01:40:380:16:46 min/km
526Mary Grace Reludo (1411)01:40:420:16:47 min/km
527Lalaine Miralles (2756)01:41:050:16:50 min/km
528Unknown Runner (891)01:41:390:16:56 min/km
529Trishia Mae Trapal (1456)01:41:590:16:59 min/km
530Unknown Runner (2436)01:42:160:17:02 min/km
531Christian Zapata (1252)01:42:180:17:03 min/km
532Joyce Ravina (73)01:42:500:17:08 min/km
533Jen Dela Cruz (782)01:43:010:17:10 min/km
534Al Fernandez (1972)01:43:260:17:14 min/km
535Nonabell Bacomo (653)01:43:330:17:15 min/km
536Mark Anthony Dava (2499)01:43:510:17:18 min/km
537Jan Leigh Raposon (334)01:43:550:17:19 min/km
538Elaine Noriega (2190)01:44:090:17:21 min/km
539Unknown Runner (2401)01:44:510:17:28 min/km
540Katheleen Mae Nabung (81)01:45:190:17:33 min/km
541Selwynne Absalon (1521)01:45:230:17:33 min/km
542Ferdinand Camana (279)01:45:290:17:34 min/km
543Gerwina Camana (278)01:45:340:17:35 min/km
544Mariane Aime Batac (1445)01:45:450:17:37 min/km
545Emmanuel Balamban (471)01:46:300:17:45 min/km
546Vanessa Joyce Valbuena (596)01:46:530:17:48 min/km
547Unknown Runner (897)01:46:560:17:49 min/km
548Teresa Gimpayan (2979)01:47:160:17:52 min/km
549Edward Noriega (2310)01:47:180:17:53 min/km
550Jennelyn Ortiz (1410)01:47:250:17:54 min/km
551Claribelle Comoda (342)01:47:260:17:54 min/km
552Gloria Escanan (2018)01:47:420:17:57 min/km
553Rechel Cruz (1520)01:47:440:17:57 min/km
554Nino Lumba (362)01:48:040:18:00 min/km
555Allan Paraiso (788)01:48:200:18:03 min/km
556Jan Vincent (1058)01:48:220:18:03 min/km
557Kathline Camacho (801)01:48:230:18:03 min/km
558Ma. Angelica Abaya (975)01:48:300:18:05 min/km
559Unknown Runner (176)01:48:350:18:05 min/km
560Unknown Runner (177)01:48:360:18:06 min/km
561Jason Pascua (318)01:48:370:18:06 min/km
562Unknown Runner (1323)01:48:500:18:08 min/km
563Marlyn Lacson (2768)01:48:550:18:09 min/km
564Unknown Runner (853)01:49:160:18:12 min/km
565Ana Lyn Absalon (1519)01:49:170:18:12 min/km
566Samantha Jane Calanog (879)01:49:280:18:14 min/km
567Dianna Cristine Salonga (2547)01:49:310:18:15 min/km
568Alexandrea Absalon (1518)01:49:410:18:16 min/km
569Kelvin Evangelista (480)01:50:040:18:20 min/km
570Arjay Saluan (341)01:50:340:18:25 min/km
571Zander Saberon (66)01:50:440:18:27 min/km
572Unknown Runner (2734)01:51:010:18:30 min/km
573Christopher Bajar (1283)01:51:160:18:32 min/km
574Dave John Macias (1655)01:51:310:18:35 min/km
575Veneriz Fajardo (954)01:52:380:18:46 min/km
576Michael Maguad (510)01:53:470:18:57 min/km
577Eric Salvacion (1711)01:53:500:18:58 min/km
578Unknown Runner (2280)01:53:580:18:59 min/km
579Ramon De Leon (29)01:54:240:19:04 min/km
580Cheryl Golangco (1835)01:54:270:19:04 min/km
581Sheryll Drilo (882)01:54:390:19:06 min/km
582Richard Dela Vega (2101)01:56:120:19:22 min/km
583Liezel Venus (536)01:56:230:19:23 min/km
584ANNA LOURDES BAUTISTA (2774)01:56:240:19:24 min/km
585Heinz Elorde (1605)01:56:280:19:24 min/km
586Joyce Torres (1289)01:57:020:19:30 min/km
587Madylene Taladro (24)01:57:320:19:35 min/km
588Unknown Runner (2714)01:57:530:19:38 min/km
589Dandy Elises (2474)01:57:570:19:39 min/km
590Lea Lee Angela Medina (921)01:57:590:19:39 min/km
591Unknown Runner (2690)01:58:200:19:43 min/km
592Maria Katrina Caritos (2216)02:00:060:20:01 min/km
593Sharmaine Viesca (2762)02:00:100:20:01 min/km
594David Rivera (270)02:01:450:20:17 min/km
595Ruben Tanedo (1635)02:02:090:20:21 min/km
596Unknown Runner (2282)02:02:170:20:22 min/km
597Ernest Bismonte (1671)02:03:560:20:39 min/km
598Unknown Runner (1465)02:03:580:20:39 min/km
599Unknown Runner (2440)02:04:560:20:49 min/km
600Alvira Galido (1863)02:05:520:20:58 min/km
601Richard Fernandez (2048)02:08:440:21:27 min/km
602Pocholo Desiderio (2548)02:11:110:21:51 min/km
603Angelica Clarice Sales (1113)02:12:220:22:03 min/km
604Diana Antonio (786)02:13:240:22:14 min/km
605Baby Zyrel Cabunyag (1661)02:17:230:22:53 min/km
606Jeffrey Medina (576)02:18:190:23:03 min/km
Rank Name & BIB Time Pace
1Bejie Pangeo (2155)00:58:030:06:27 min/km
2Severino Carrilo (76)01:00:010:06:40 min/km
3Marcelino Dario (1599)01:01:010:06:46 min/km
4Agapito Flor (275)01:01:160:06:48 min/km
5Unknown Runner (2441)01:01:250:06:49 min/km
6Unknown Runner (1319)01:02:000:06:53 min/km
7Francis Roque (998)01:03:070:07:00 min/km
8Nina Panaugan (633)01:03:220:07:02 min/km
9Kevin Ferrer (572)01:03:320:07:03 min/km
10Albert Lee Angeles (375)01:04:010:07:06 min/km
11Unknown Runner (1471)01:05:210:07:15 min/km
12Francis Alfaro (1645)01:05:230:07:15 min/km
13Ancecito Condes (1885)01:06:070:07:20 min/km
14Unknown Runner (1780)01:06:110:07:21 min/km
15Eric Espino (2173)01:06:140:07:21 min/km
16Jayson Antonio (2345)01:06:470:07:25 min/km
17Unknown Runner (1007)01:07:140:07:28 min/km
18Crimson Hotel Runner (1189)01:07:240:07:29 min/km
19Patrick John Cabasag (732)01:07:300:07:30 min/km
20Filinvest City Runner (1778)01:07:570:07:33 min/km
21Evert Malapad (1225)01:08:060:07:34 min/km
22John Patrick Rioferio (1697)01:09:300:07:43 min/km
23Edwin Sotto (1296)01:09:490:07:45 min/km
24Unknown Runner (2583)01:11:070:07:54 min/km
25Unknown Runner (2710)01:11:160:07:55 min/km
26Allan Riel Almario (397)01:11:200:07:55 min/km
27Al Fernandez (1477)01:11:230:07:55 min/km
28Harris Hwang (1887)01:11:280:07:56 min/km
29Monica Limbo (1434)01:12:270:08:03 min/km
30Rose Vi Ubas (2631)01:13:480:08:12 min/km
31Paula Beatrice Fucoy (1667)01:13:510:08:12 min/km
32Unknown Runner (2276)01:14:120:08:14 min/km
33Warda Hadji Omar (2936)01:14:320:08:16 min/km
34Unknown Runner (2801)01:15:000:08:20 min/km
35Reynaldo Cumpio (1403)01:15:090:08:21 min/km
36Reginald Nana (2246)01:15:290:08:23 min/km
37Amalia Santos (456)01:15:380:08:24 min/km
38Mark John Ruadulla (1615)01:15:380:08:24 min/km
39Vizmark Mag-Iba (1374)01:16:130:08:28 min/km
40Unknown Runner (835)01:16:220:08:29 min/km
41Jaydee Lou Octavo (294)01:16:250:08:29 min/km
42Jan Patrick Puno (132)01:16:260:08:29 min/km
43Russel Carlo Peralta (1436)01:16:300:08:30 min/km
44Unknown Runner (2582)01:16:310:08:30 min/km
45Ericson Delagon (2175)01:16:460:08:31 min/km
46Unknown Runner (1006)01:16:500:08:32 min/km
47Lenmarx dela Cruz (2265)01:17:150:08:35 min/km
48Crimson Hotel Runner (1188)01:17:210:08:35 min/km
49Bernard Jay Magnaye (2201)01:17:250:08:36 min/km
50Unknown Runner (2399)01:17:460:08:38 min/km
51Julius Debarbo (427)01:17:500:08:38 min/km
52Jayrald Belarmino (332)01:17:540:08:39 min/km
53Marion Alexander Janairo (331)01:17:550:08:39 min/km
54Iris Barrameda (1698)01:18:020:08:40 min/km
55Carlo Angelo Falcis (2816)01:18:180:08:42 min/km
56Josef Ricardo Espiritu (2566)01:18:220:08:42 min/km
57Unknown Runner (1034)01:18:270:08:43 min/km
58Noel Guevarra (1851)01:18:270:08:43 min/km
59Unknown Runner (2688)01:18:390:08:44 min/km
60Unknown Runner (550)01:18:430:08:44 min/km
61Unknown Runner (2642)01:18:450:08:45 min/km
62Tomas Antolino Tongson (437)01:18:520:08:45 min/km
63Mariolito Abundo (2044)01:18:540:08:46 min/km
64Jerome Esperanza (1202)01:18:560:08:46 min/km
65Mary Joy Oreta (1208)01:19:170:08:48 min/km
66John Patrick Bravo (2088)01:19:410:08:51 min/km
67Wilfredo Dimatera (910)01:19:470:08:51 min/km
68Aida Jumamoy (2089)01:19:580:08:53 min/km
69Jeffrey Anthony Arazas (1394)01:20:360:08:57 min/km
70Marlon Arcedo (912)01:20:470:08:58 min/km
71Heherson Totto (1401)01:20:500:08:58 min/km
72Unknown Runner (1017)01:21:040:09:00 min/km
73Kyn Rusyl Osorio (38)01:21:180:09:02 min/km
74Brian Teraldo (300)01:21:250:09:02 min/km
75Egbert Alan Eballa (16)01:21:280:09:03 min/km
76Unknown Runner (2718)01:21:280:09:03 min/km
77Perry Jimenez (2220)01:21:310:09:03 min/km
78Christian Tan (1135)01:21:590:09:06 min/km
79Cris Gonzales (2069)01:22:170:09:08 min/km
80Carlo Galizdo (2162)01:22:300:09:10 min/km
81Unknown Runner (2708)01:22:330:09:10 min/km
82Jed Carlo Purificacio (2120)01:22:350:09:10 min/km
83Abigail Katigdag (1068)01:22:360:09:10 min/km
84Rafael Eduard Garde (1528)01:22:360:09:10 min/km
85Dennis Penanedondo (78)01:22:470:09:11 min/km
86Unknown Runner (1364)01:22:520:09:12 min/km
87Margie Jorillo (1451)01:22:550:09:12 min/km
88Louie Quinit (677)01:22:590:09:13 min/km
89Mark Bill Bauzon (2032)01:23:160:09:15 min/km
90Cindy Flamiano Sausa (2562)01:23:180:09:15 min/km
91Jazmeen Torrecampo (2863)01:23:210:09:15 min/km
92John Patrick Atienza (368)01:23:270:09:16 min/km
93Mark Christopher Sta Juana Tolentino (426)01:23:300:09:16 min/km
94John Bernie Ruiz (188)01:23:340:09:17 min/km
95Michael Pacifico (369)01:23:350:09:17 min/km
96Rana Bico (2826)01:24:040:09:20 min/km
97Kirby Infante (1686)01:24:080:09:20 min/km
98Unknown Runner (1023)01:24:230:09:22 min/km
99Moses Tepace (2042)01:24:380:09:24 min/km
100Arlene Santos (2028)01:24:440:09:24 min/km
101Jerico Aragon (2243)01:25:000:09:26 min/km
102Mary Drixkie Bojador (2489)01:25:080:09:27 min/km
103Eden Laudet (430)01:25:190:09:28 min/km
104Unknown Runner (1358)01:25:230:09:29 min/km
105Jan Kevin Roque (415)01:25:320:09:30 min/km
106Jayson Sy (418)01:25:410:09:31 min/km
107Mia Falcis (2815)01:25:520:09:32 min/km
108Melvin Bryan Baute (2298)01:25:560:09:32 min/km
109Maricel Era (625)01:25:590:09:33 min/km
110Emmanuel Tagle (2174)01:26:030:09:33 min/km
111Unknown Runner (1483)01:26:270:09:36 min/km
112Ariel Valondo (195)01:26:450:09:38 min/km
113Billy Ayson (2482)01:26:540:09:39 min/km
114Unknown Runner (1362)01:27:010:09:40 min/km
115Unknown Runner (2701)01:27:090:09:41 min/km
116Unknown Runner (745)01:27:130:09:41 min/km
117Unknown Runner (796)01:27:190:09:42 min/km
118Lawrence Jay Reyes (1137)01:27:200:09:42 min/km
119Rodel Ilagan (2831)01:27:210:09:42 min/km
120Mart Gerwin Florendo (917)01:27:320:09:43 min/km
121Rexcel Jay Boretta (370)01:27:340:09:43 min/km
122Unknown Runner (2296)01:27:340:09:43 min/km
123Richard Vargas (574)01:27:360:09:44 min/km
124Unknown Runner (1489)01:27:430:09:44 min/km
125Danilo Aragon (2811)01:27:480:09:45 min/km
126Bonifacio Anchoriz (2102)01:28:160:09:48 min/km
127Marj Bendoy (714)01:28:380:09:50 min/km
128Rhea Mendoza (1701)01:28:410:09:51 min/km
129J.R Magbagay (2331)01:28:460:09:51 min/km
130Gerald Miguel Mombay (2375)01:29:000:09:53 min/km
131Unknown Runner (1783)01:29:010:09:53 min/km
132Unknown Runner (1754)01:29:090:09:54 min/km
133Federico Dela Cruz (416)01:29:110:09:54 min/km
134Unknown Runner (1781)01:29:140:09:54 min/km
135TESA LONICA GAYGON (2784)01:29:220:09:55 min/km
136KAIZEN GAYGON (2790)01:29:220:09:55 min/km
137Unknown Runner (889)01:29:440:09:58 min/km
138Jhun Goguanco (877)01:30:010:10:00 min/km
139Rommel Swing (878)01:30:170:10:01 min/km
140Charity Bartolome (2938)01:30:180:10:02 min/km
141Nathaniel Carongan (2095)01:30:300:10:03 min/km
142Leonard Ritchie Tamana (2343)01:30:450:10:05 min/km
143Renan Gomez (911)01:30:460:10:05 min/km
144Maria Amelette Torrecampo (2862)01:30:470:10:05 min/km
145Janet Riosa (134)01:30:490:10:05 min/km
146Ma. Caroline Orbe (591)01:30:530:10:05 min/km
147Gracia Parel (2853)01:31:160:10:08 min/km
148Christine Villaluna (2855)01:31:160:10:08 min/km
149Paul Vincent Chan (2067)01:31:190:10:08 min/km
150Healthy Way Runner (1169)01:31:290:10:09 min/km
151Rogaciano Reyes (2180)01:31:330:10:10 min/km
152Unknown Runner (2721)01:31:360:10:10 min/km
153Ronald Allan Bautista (414)01:31:440:10:11 min/km
154Julbert Cabilos (2311)01:31:580:10:13 min/km
155Unknown Runner (1784)01:32:120:10:14 min/km
156Clang Dela Cruz (1984)01:32:260:10:16 min/km
157Mark Clarence Elic (2866)01:32:310:10:16 min/km
158Unknown Runner (2838)01:32:440:10:18 min/km
159Alexander Pangilinan (508)01:32:500:10:18 min/km
160Unknown Runner (2678)01:32:530:10:19 min/km
161Jehrom Estimada (507)01:32:540:10:19 min/km
162Unknown Runner (2640)01:32:560:10:19 min/km
163Dante Antonio (787)01:33:020:10:20 min/km
164Daniel Orajay (338)01:33:070:10:20 min/km
165Unknown Runner (1782)01:33:100:10:21 min/km
166Vincent Agawin (1098)01:33:170:10:21 min/km
167Unknown Runner (167)01:33:180:10:22 min/km
168Chrys Constantino (2628)01:33:190:10:22 min/km
169Gester Camalig (1286)01:33:290:10:23 min/km
170Unknown Runner (607)01:33:330:10:23 min/km
171Julie Anne Gaimol (267)01:33:370:10:24 min/km
172Celeste Mendoza (699)01:33:430:10:24 min/km
173Eugene Paul Tagsiat (708)01:34:140:10:28 min/km
174JJ San Juan (1989)01:34:250:10:29 min/km
175Unknown Runner (1470)01:34:290:10:29 min/km
176Charmie De Guzman (1703)01:34:290:10:29 min/km
177Unknown Runner (1468)01:34:300:10:30 min/km
178Antonio Reyes Jr (1556)01:34:500:10:32 min/km
179Enrique Umali (1890)01:34:520:10:32 min/km
180Unknown Runner (604)01:35:020:10:33 min/km
181Mark Anthony Buenvenida (1083)01:35:020:10:33 min/km
182Unknown Runner (2666)01:35:040:10:33 min/km
183Innah Luna (285)01:35:070:10:34 min/km
184Unknown Runner (792)01:35:100:10:34 min/km
185Ruben Fajardo (1850)01:35:200:10:35 min/km
186Katrina Andion Ramirez (310)01:35:220:10:35 min/km
187Jubail Gundran (311)01:35:220:10:35 min/km
188Leonardo Motealegre (428)01:35:240:10:36 min/km
189Unknown Runner (1024)01:35:240:10:36 min/km
190Jocelyn Cinco (2846)01:35:260:10:36 min/km
191Marian Joy Ateinza (2359)01:35:310:10:36 min/km
192Raymond Belostrino (119)01:35:320:10:36 min/km
193Maribel Malveda (632)01:35:350:10:37 min/km
194Jerlyn Florendo (2744)01:35:420:10:38 min/km
195Fe Frondosa (2006)01:35:450:10:38 min/km
196Michelle Ched Gusto (2530)01:35:490:10:38 min/km
197Roberto Pasamba (2490)01:35:530:10:39 min/km
198Alvin Ong (1209)01:35:550:10:39 min/km
199Joyce Romaraog (551)01:36:170:10:41 min/km
200Bren Bernard Batuyong (12)01:36:290:10:43 min/km
201Jocelyn Nanette Mendoza (1730)01:36:410:10:44 min/km
202Lolit Dosado (798)01:36:430:10:44 min/km
203Unknown Runner (900)01:36:450:10:45 min/km
204Martin Luis Valenzuela (1888)01:36:450:10:45 min/km
205Mike Perez (2332)01:36:480:10:45 min/km
206Ramshall Belostrino (120)01:36:540:10:46 min/km
207Unknown Runner (2584)01:36:550:10:46 min/km
208Jobelle Lumanglas (211)01:36:560:10:46 min/km
209Aldrich Padilla (2835)01:37:010:10:46 min/km
210Julius Andrew Joyas (848)01:37:020:10:46 min/km
211Unknown Runner (2084)01:37:140:10:48 min/km
212Unknown Runner (1012)01:37:160:10:48 min/km
213Dondi Martinez (284)01:37:170:10:48 min/km
214Unknown Runner (2588)01:37:210:10:49 min/km
215Glenn Ladignun (1644)01:37:260:10:49 min/km
216Unknown Runner (815)01:37:300:10:50 min/km
217Unknown Runner (532)01:37:320:10:50 min/km
218Unknown Runner (1469)01:37:360:10:50 min/km
219Homer Sarmiento (2182)01:37:370:10:50 min/km
220Unknown Runner (816)01:37:450:10:51 min/km
221Carlos Jason Silva (233)01:37:530:10:52 min/km
222Fauberto Cosue (1604)01:37:550:10:52 min/km
223Marie Jasmine Valerie Catbagan (1959)01:37:570:10:53 min/km
224Gerardo Garcia (700)01:38:020:10:53 min/km
225Rowena Garcia (2016)01:38:090:10:54 min/km
226Sheila Erica Tan (1110)01:38:140:10:54 min/km
227Mark Niko Montesua (348)01:38:180:10:55 min/km
228Grace Constantino (1613)01:38:240:10:56 min/km
229Jonathan Salza (1524)01:38:300:10:56 min/km
230Olivia Santos (108)01:38:320:10:56 min/km
231Maria Rizza Montealegre (429)01:38:360:10:57 min/km
232Ricky Perez Jr. (2334)01:38:580:10:59 min/km
233Joseph Paulo Santos (2251)01:38:590:10:59 min/km
234Katherine Reyes (675)01:39:070:11:00 min/km
235Sam Immanuel Macaisa (1249)01:39:100:11:01 min/km
236Kelvin Jay Bien (1248)01:39:110:11:01 min/km
237Emmy Jane Libutaque (1247)01:39:120:11:01 min/km
238Rafael Reyes IV (1621)01:39:180:11:02 min/km
239Unknown Runner (2295)01:39:200:11:02 min/km
240Maricel Melendrez (56)01:39:220:11:02 min/km
241Josaph Tipones (2094)01:39:370:11:04 min/km
242Unknown Runner (861)01:39:490:11:05 min/km
243Elvis Villanueva (783)01:39:540:11:06 min/km
244Unknown Runner (2293)01:39:540:11:06 min/km
245Nelly Moneva (2060)01:40:110:11:07 min/km
246Sheila Paule (2009)01:40:140:11:08 min/km
247Princess Jade Ramos (2537)01:40:180:11:08 min/km
248Christian Gabriel Lee (1213)01:40:210:11:09 min/km
249Stephanie Quinones (2573)01:40:290:11:09 min/km
250John Michael Presto (2574)01:40:310:11:10 min/km
251Anthony Cabrera (2322)01:40:380:11:10 min/km
252Unknown Runner (2435)01:40:400:11:11 min/km
253Krystel Agnote (1121)01:40:520:11:12 min/km
254Fernando Macaraig (2335)01:40:550:11:12 min/km
255Unknown Runner (743)01:41:000:11:13 min/km
256Ron Julius Dablo (2300)01:41:000:11:13 min/km
257Neriel Masuecos (2492)01:41:170:11:15 min/km
258Mark Castro (2123)01:41:370:11:17 min/km
259Neeka Jimenez (1688)01:41:420:11:18 min/km
260Eric Carpio (986)01:41:430:11:18 min/km
261Gray Ramirez (451)01:41:460:11:18 min/km
262Nova Mordibe (1687)01:41:490:11:18 min/km
263AshLey Alejo (219)01:41:540:11:19 min/km
264Hazzelyn Cruz (1719)01:42:060:11:20 min/km
265Angel Ariel Garcia (2325)01:42:110:11:21 min/km
266Marian Barot (202)01:42:400:11:24 min/km
267Richard Banderado (707)01:42:410:11:24 min/km
268Jefferson Itulid (857)01:42:430:11:24 min/km
269Charles Adorable (1292)01:42:430:11:24 min/km
270Michelle Adorable (1291)01:42:450:11:25 min/km
271Ai Santos (1217)01:42:500:11:25 min/km
272Cesar Ben Salera (648)01:42:550:11:26 min/km
273Xavier Salera (649)01:42:570:11:26 min/km
274Marilyn Dila (2647)01:42:570:11:26 min/km
275Theresa Cantero (716)01:43:150:11:28 min/km
276Angelly Joy Bantiquete (316)01:43:180:11:28 min/km
277Unknown Runner (1320)01:43:220:11:29 min/km
278Maria Christime Alvarez (2224)01:43:280:11:29 min/km
279Ruth Martinez (2218)01:43:290:11:29 min/km
280Czarinah Recinto (102)01:43:330:11:30 min/km
281Unknown Runner (1029)01:43:350:11:30 min/km
282Leonida Garcia (2324)01:43:360:11:30 min/km
283Jiorie Jeremie Garbulo (720)01:43:370:11:30 min/km
284Amabelle Calumbiran (2225)01:43:370:11:30 min/km
285Maria Eloisa Cabrera (2323)01:43:410:11:31 min/km
286Roselia Jaingue (1578)01:43:570:11:33 min/km
287Unknown Runner (892)01:44:000:11:33 min/km
288Unknown Runner (600)01:44:260:11:36 min/km
289Mores Heramis (1117)01:44:370:11:37 min/km
290Julie Ann Gando (50)01:44:400:11:37 min/km
291Unknown Runner (2412)01:44:400:11:37 min/km
292Cynthia Ragusante (446)01:44:430:11:38 min/km
293Van Nilsson Evangelista (443)01:44:450:11:38 min/km
294Kai Alulod (606)01:44:560:11:39 min/km
295Unknown Runner (2738)01:44:570:11:39 min/km
296Henry Aldave V (251)01:44:580:11:39 min/km
297Unknown Runner (804)01:45:010:11:40 min/km
298Gino Orozco (431)01:45:030:11:40 min/km
299Robert Dulguime (404)01:45:160:11:41 min/km
300Grace Bodomo (556)01:45:180:11:42 min/km
301Unknown Runner (1510)01:45:190:11:42 min/km
302Cris Casidsid (482)01:45:290:11:43 min/km
303Unknown Runner (2279)01:45:380:11:44 min/km
304Jessica Melencio (1913)01:45:490:11:45 min/km
305Luzviminda Calibara (2864)01:45:530:11:45 min/km
306Unknown Runner (893)01:46:000:11:46 min/km
307Ace Angel Aquino (1457)01:46:080:11:47 min/km
308Unknown Runner (2717)01:46:080:11:47 min/km
309Ronelio Aquino (1632)01:46:130:11:48 min/km
310Lyka Himpisao (1226)01:46:140:11:48 min/km
311Marilou Matias (622)01:46:170:11:48 min/km
312Unknown Runner (1152)01:46:250:11:49 min/km
313Gregorio Roxas (333)01:46:320:11:50 min/km
314Karissa Catugas (2571)01:46:330:11:50 min/km
315Mary Rose Sario (182)01:46:350:11:50 min/km
316Unknown Runner (2570)01:46:360:11:50 min/km
317Meliza Atienza (2791)01:46:380:11:50 min/km
318Josef Lera (444)01:46:520:11:52 min/km
319Lester Buan (1301)01:46:530:11:52 min/km
320Catherine Castro (1136)01:46:560:11:52 min/km
321Rolly Peruelo (2212)01:46:560:11:52 min/km
322Araceli Amoyen (2568)01:46:580:11:53 min/km
323Unknown Runner (1333)01:47:080:11:54 min/km
324Unknown Runner (2411)01:47:100:11:54 min/km
325Eroll Feranil (2823)01:47:130:11:54 min/km
326Djhoanna Khristine De Guzman (386)01:47:180:11:55 min/km
327Unknown Runner (2569)01:47:240:11:56 min/km
328Unknown Runner (2728)01:47:280:11:56 min/km
329Maria Soleil Yap (276)01:47:350:11:57 min/km
330Rocelle Venezuela (2019)01:47:420:11:58 min/km
331Bernadeth Joyce Eugenio (104)01:47:500:11:58 min/km
332Christine De Guzman (855)01:47:520:11:59 min/km
333Alia Macawili (709)01:47:570:11:59 min/km
334Jinky Pena (212)01:48:050:12:00 min/km
335Loida Pena (213)01:48:060:12:00 min/km
336Nicole Therese Garcia (706)01:48:170:12:01 min/km
337Chris Martin Pama (971)01:48:170:12:01 min/km
338Marjorie Aspiras (2572)01:48:190:12:02 min/km
339Unknown Runner (753)01:48:200:12:02 min/km
340Unknown Runner (161)01:48:210:12:02 min/km
341Unknown Runner (175)01:48:300:12:03 min/km
342Karoline Usis (2775)01:48:500:12:05 min/km
343Jaye Claveria (226)01:48:560:12:06 min/km
344Unknown Runner (1030)01:49:110:12:07 min/km
345James Benedict Juta (325)01:49:350:12:10 min/km
346Lou Anne Garcia (2560)01:49:370:12:10 min/km
347Lovely Ann Manansala (220)01:49:400:12:11 min/km
348Unknown Runner (2670)01:49:420:12:11 min/km
349Vanessa Pua (387)01:49:430:12:11 min/km
350Jerameel Amaquin (323)01:49:450:12:11 min/km
351Unknown Runner (814)01:49:500:12:12 min/km
352Margie Lumanao (657)01:50:160:12:15 min/km
353Noelito Adrian Bellaflor (103)01:50:180:12:15 min/km
354Justine Christopher Eugenio (106)01:50:200:12:15 min/km
355James Florence Lacuta (660)01:50:220:12:15 min/km
356Patricia Eugenio (107)01:50:270:12:16 min/km
357Agatha Christy Serapion (673)01:50:430:12:18 min/km
358Rikki Suarez (1824)01:50:490:12:18 min/km
359Glenn Gesite (1517)01:50:500:12:18 min/km
360Jessica Faye Quimpo (1114)01:51:020:12:20 min/km
361Hernan Marqueses (214)01:51:090:12:21 min/km
362Harold Camacho (989)01:51:170:12:21 min/km
363Samuel Pacayra (701)01:51:220:12:22 min/km
364Unknown Runner (752)01:51:220:12:22 min/km
365Alyanna Julia Hoffmon (990)01:51:250:12:22 min/km
366Unknown Runner (2684)01:51:250:12:22 min/km
367Marc Giancarlo Reyes (2777)01:51:250:12:22 min/km
368Unknown Runner (781)01:51:260:12:22 min/km
369Jovilyn Aquino (2495)01:51:310:12:23 min/km
370Regine Perpuse (2496)01:51:350:12:23 min/km
371Jole Miralles (2878)01:51:420:12:24 min/km
372Lorna Jacob (2561)01:52:080:12:27 min/km
373Erika Yanez (222)01:52:120:12:28 min/km
374Unknown Runner (724)01:52:270:12:29 min/km
375Unknown Runner (609)01:52:300:12:30 min/km
376Aaron Almazar (661)01:52:390:12:31 min/km
377Krisha Ann Reyes (10)01:52:400:12:31 min/km
378Unknown Runner (1463)01:52:410:12:31 min/km
379Rolando De Guzman (1704)01:52:410:12:31 min/km
380Unknown Runner (755)01:52:430:12:31 min/km
381Unknown Runner (1464)01:52:430:12:31 min/km
382Jonalyn Sangalang (1680)01:52:540:12:32 min/km
383Jessa Eileen Bayolot (519)01:52:550:12:32 min/km
384John Fernando Abdon (520)01:52:590:12:33 min/km
385Johann Batalla (839)01:53:000:12:33 min/km
386Unknown Runner (2779)01:53:210:12:35 min/km
387Mary Grace Gloria (1602)01:53:280:12:36 min/km
388Ma. Agnes Almosara (140)01:53:380:12:37 min/km
389Jayson Del Mundo (965)01:53:390:12:37 min/km
390Unknown Runner (1389)01:53:400:12:37 min/km
391Angela Joyce Tamano (1396)01:53:410:12:37 min/km
392Irish Kasandra Pagarigan (964)01:53:460:12:38 min/km
393Mybeth Sumalinog (67)01:53:540:12:39 min/km
394Katrina Sotto (1101)01:53:570:12:39 min/km
395Aaron Alvarez (918)01:54:010:12:40 min/km
396Joseph Villordon (269)01:54:210:12:42 min/km
397May Fernando (2624)01:54:330:12:43 min/km
398Jeffrey Guinto (2743)01:54:330:12:43 min/km
399Michelle Ched Padpad (2742)01:54:350:12:43 min/km
400Mark Lacson (2769)01:54:360:12:44 min/km
402Jennifer Lombos (304)01:54:420:12:44 min/km
403Chrishielle Zapata (27)01:55:060:12:47 min/km
404Marvenson Zapata (28)01:55:060:12:47 min/km
405Unknown Runner (1387)01:55:360:12:50 min/km
406Marlon Aldenese (1815)01:56:040:12:53 min/km
407Jairus Christian Rodio (659)01:56:130:12:54 min/km
408Ma. Jonah Pereyra (658)01:56:180:12:55 min/km
409Unknown Runner (1027)01:56:190:12:55 min/km
410Paz Nery (1324)01:56:240:12:56 min/km
411Unknown Runner (2669)01:56:450:12:58 min/km
412Angelica Flores (363)01:56:510:12:59 min/km
413Julio Evina (1705)01:56:590:12:59 min/km
414John Paul Palaypayon (2545)01:57:040:13:00 min/km
415Nina Dumlao (1280)01:57:310:13:03 min/km
416Unknown Runner (1509)01:58:070:13:07 min/km
417Unknown Runner (899)01:58:100:13:07 min/km
418Darwin Dogayo (2208)01:58:130:13:08 min/km
419Romelyn Habula (866)01:58:150:13:08 min/km
420Charlie Balatbat (95)01:58:210:13:09 min/km
421Brandy Suasin Camus (93)01:58:220:13:09 min/km
422Marjorie Quiba (2651)01:58:240:13:09 min/km
423Ritchel Acedo (2879)01:58:260:13:09 min/km
424Bennett Mariano (1057)01:58:270:13:09 min/km
425Lester Roxas (2258)01:58:320:13:10 min/km
426Jeffrey Rafallo (974)01:58:520:13:12 min/km
427Vernadette Padilla (465)01:59:170:13:15 min/km
428Ma. Angeline Lopez (1444)01:59:470:13:18 min/km
429Unknown Runner (2665)01:59:470:13:18 min/km
430Rhecster Ferrer (364)02:00:040:13:20 min/km
431Unknown Runner (1157)02:00:150:13:21 min/km
432Mary Grace Quion (1699)02:00:160:13:21 min/km
433Rodrigo Ostaco (2134)02:00:180:13:22 min/km
434James Patrick Dy (1731)02:00:300:13:23 min/km
435Unknown Runner (1175)02:00:310:13:23 min/km
436Abigail Lorenz Mendoza (1447)02:00:350:13:23 min/km
437Mara Hoffman (593)02:00:510:13:25 min/km
438Unknown Runner (754)02:00:590:13:26 min/km
439Kristian Norman Menrije (734)02:01:110:13:27 min/km
440Patrick Madamba (2881)02:01:120:13:28 min/km
441Unknown Runner (1764)02:01:210:13:29 min/km
442Miles Puno (133)02:01:380:13:30 min/km
443Princess Annabelle Cristobal (2902)02:01:390:13:31 min/km
444Maria Cristina Cauman (2913)02:01:410:13:31 min/km
445Angela Joyce Dela Vega (1300)02:01:470:13:31 min/km
446Mark Abat (1178)02:02:310:13:36 min/km
447Unknown Runner (2393)02:03:000:13:40 min/km
448Crescina Yap (2982)02:03:090:13:41 min/km
449Unknown Runner (1352)02:03:160:13:41 min/km
450Unknown Runner (1351)02:03:180:13:42 min/km
451Dennis Migrino (517)02:03:220:13:42 min/km
452Alma Escala (516)02:03:240:13:42 min/km
453Ma. Cressida Dadula (2077)02:03:410:13:44 min/km
454Joshua Romel Lintag (347)02:04:150:13:48 min/km
455Reizel Lejano (2263)02:04:240:13:49 min/km
456Unknown Runner (1317)02:04:260:13:49 min/km
457Cristina Magnaye (127)02:06:050:14:00 min/km
458Jeffrey Hesula (413)02:06:070:14:00 min/km
459Jaja Libuit (34)02:07:290:14:09 min/km
460Jan Michael Lisondra (201)02:07:300:14:10 min/km
461Lorenzo Manago (2538)02:07:300:14:10 min/km
462Aaron James Salgado (2497)02:07:470:14:11 min/km
463Aileen Abelinde (1664)02:08:040:14:13 min/km
464Melissa Bismonte (1670)02:09:360:14:24 min/km
465Lauriano Genetiano (1438)02:11:570:14:39 min/km
466Alexander Cajuguiran Jr (967)02:12:540:14:46 min/km
467Marel Familiar (1689)02:13:170:14:48 min/km
468Michael Hernandez (1733)02:13:180:14:48 min/km
469Chino Samonte (1690)02:13:320:14:50 min/km
470Miguel Carlo Alburo (957)02:14:140:14:54 min/km
471Jerriel Masilungan (190)02:14:170:14:55 min/km
472Dianne Salonga (1810)02:14:200:14:55 min/km
473Nenette Brenner (2649)02:17:280:15:16 min/km
474Juan Carlos Acosta (351)02:17:340:15:17 min/km
475Cathlene Babaran (575)02:18:170:15:21 min/km
476Theresita Javier (1454)02:24:070:16:00 min/km
477Lucio Dimayuga (2755)02:25:060:16:07 min/km
Rank Name & BIB Time Pace
1Joan Caralian (624)01:17:380:06:28 min/km
2Robert Dionisio (401)01:19:140:06:36 min/km
3Benjamin Manuel Rubia (939)01:20:280:06:42 min/km
4Rommel Remoquillo (2056)01:20:320:06:42 min/km
5Jerry Ali (2462)01:20:510:06:44 min/km
6Jeffrey Roxas (2931)01:20:580:06:44 min/km
7Aldrich Runner (2935)01:22:000:06:50 min/km
8Crimson Hotel Runner (2599)01:23:530:06:59 min/km
9Fred Orea (2459)01:24:410:07:03 min/km
10Reynaldo Ignacio (1384)01:25:460:07:08 min/km
11Unknown Runner (1361)01:26:450:07:13 min/km
12Kelvin Pineda (2118)01:27:010:07:15 min/km
13Valentin Lorejo (2026)01:27:480:07:19 min/km
14Stephen Cariosa (860)01:28:360:07:23 min/km
15Jose Arambulo III (2871)01:28:440:07:23 min/km
16Francis Lloyd Iglesia (2047)01:31:240:07:37 min/km
17Jean Guadana (710)01:33:250:07:47 min/km
18Sergio Dayug (2646)01:33:250:07:47 min/km
19Randy Brila (2030)01:33:470:07:48 min/km
20Unknown Runner (884)01:34:380:07:53 min/km
21Reenan Rivera (355)01:34:410:07:53 min/km
22Jeffrey Gutilban (1914)01:35:210:07:56 min/km
23Unknown Runner (1502)01:35:350:07:57 min/km
24John Elgin Fernandez (2643)01:35:400:07:58 min/km
25Alvin Del Rosario (417)01:35:450:07:58 min/km
26Allison Tan (645)01:36:200:08:01 min/km
27Joper Bala (64)01:36:540:08:04 min/km
28Jocelyn Ruadel (776)01:37:010:08:05 min/km
29Paul Oliver Estrella (521)01:37:370:08:08 min/km
30Unknown Runner (2719)01:37:390:08:08 min/km
31Unknown Runner (168)01:38:110:08:10 min/km
32Patrick Turalba (1378)01:38:270:08:12 min/km
33Jane Rose Emdem (623)01:38:440:08:13 min/km
34Chona Bala (65)01:39:270:08:17 min/km
35Unknown Runner (1008)01:39:290:08:17 min/km
36Unknown Runner (2680)01:39:410:08:18 min/km
37Patricio Mayo (356)01:39:520:08:19 min/km
38Jesfer Nell Perez (243)01:40:020:08:20 min/km
39Karlo Aquino (2601)01:40:080:08:20 min/km
40Michael Dela Cruz (287)01:40:350:08:22 min/km
41Arnold Arcinal (994)01:40:470:08:23 min/km
42John Carlo Lelis (1379)01:40:560:08:24 min/km
43Dennis Conducto (2751)01:40:580:08:24 min/km
44Alfredo Dimaano Jr. (183)01:41:300:08:27 min/km
45Roylen Olayon (991)01:41:300:08:27 min/km
46Jeffrey Esrada (264)01:41:510:08:29 min/km
47Unknown Runner (886)01:42:010:08:30 min/km
48Rodel Lucenesio (1295)01:42:120:08:31 min/km
49Rogelio Sotto (1294)01:42:170:08:31 min/km
50Judy Lou Royales (242)01:42:290:08:32 min/km
51Rodney Yu (17)01:42:530:08:34 min/km
52Meylord Capanzana (293)01:42:590:08:34 min/km
53Marco Sabinu (1710)01:43:010:08:35 min/km
54Candida Grace Cal (2275)01:43:040:08:35 min/km
55Michael Cruz (2454)01:43:110:08:35 min/km
56Marjorie Anne Ajero (450)01:43:170:08:36 min/km
57Basil Francisco (2874)01:43:180:08:36 min/km
58Denmark Monal (2313)01:43:380:08:38 min/km
59Unknown Runner (1032)01:43:550:08:39 min/km
60Jason Salvador (2370)01:44:030:08:40 min/km
61Unknown Runner (2581)01:44:270:08:42 min/km
62Filinvest City Runner (1776)01:44:470:08:43 min/km
63Unknown Runner (2394)01:44:490:08:44 min/km
64Mary Grace Gannaban (1128)01:44:500:08:44 min/km
65Paul Brillantes (206)01:45:010:08:45 min/km
66Joey Larirt (2644)01:45:100:08:45 min/km
67John Paulo Aquino (1496)01:45:520:08:49 min/km
68Anthony Tamano (1399)01:46:160:08:51 min/km
69Mary Jane Javier (692)01:46:460:08:53 min/km
70Riccarl Flores (1700)01:46:510:08:54 min/km
71Lorelei De Guzman (1416)01:47:020:08:55 min/km
72Cristina Acosta (2611)01:47:090:08:55 min/km
73Rex Anthony Sabilano (129)01:47:180:08:56 min/km
74Robert Ferrer (573)01:47:250:08:57 min/km
75Richard Munoz (1282)01:47:370:08:58 min/km
76Dante Ofiaza (2176)01:47:520:08:59 min/km
77Unknown Runner (552)01:47:570:08:59 min/km
78Unknown Runner (2685)01:48:160:09:01 min/km
79Jorge Doringo Jr. (2124)01:48:170:09:01 min/km
80Kath Amurao (2873)01:48:260:09:02 min/km
81Sonia Reyes (2533)01:48:460:09:03 min/km
82Kris de Guzman (2532)01:48:470:09:03 min/km
83Unknown Runner (166)01:48:490:09:04 min/km
84Unknown Runner (2716)01:48:520:09:04 min/km
85Joven Preito (2316)01:48:530:09:04 min/km
86Rachelle Opiniano (854)01:49:180:09:06 min/km
87Mary Naomi Gail Malones (1331)01:49:240:09:07 min/km
88Unknown Runner (2780)01:49:330:09:07 min/km
89Jane Mardelette Obenieta (2549)01:49:390:09:08 min/km
90Rogelio Saavedra (11)01:49:520:09:09 min/km
91Sheena Kristel Reoliquio (1622)01:49:540:09:09 min/km
92Rosria Remoroza (2137)01:49:540:09:09 min/km
93Unknown Runner (2382)01:49:560:09:09 min/km
94Marilyn Oxales Victorino (2757)01:49:580:09:09 min/km
95Marinez Bunao (587)01:50:030:09:10 min/km
96Unknown Runner (894)01:50:040:09:10 min/km
97Lorez Navarro (903)01:50:050:09:10 min/km
98Amy Jean Inaldo (1631)01:50:150:09:11 min/km
99Arnel Rivera (1681)01:50:180:09:11 min/km
100Unknown Runner (2712)01:50:250:09:12 min/km
101Unknown Runner (1368)01:50:270:09:12 min/km
102Belardo Zuniga (42)01:50:280:09:12 min/km
103Unknown Runner (2400)01:50:450:09:13 min/km
104Jaymie Pizzaro (1805)01:50:480:09:14 min/km
105Luis Almosara (141)01:51:040:09:15 min/km
106Unknown Runner (2389)01:51:180:09:16 min/km
107Beverly Garcia (1459)01:51:200:09:16 min/km
108Kazunori Ohkawa (2563)01:51:360:09:18 min/km
109Ramil Laneza (2315)01:51:420:09:18 min/km
110Michael Woods (2037)01:51:430:09:18 min/km
111Stephen Yap (277)01:51:530:09:19 min/km
112Czareana Sarmiento (2181)01:51:540:09:19 min/km
113Ricky Masagca (2142)01:52:070:09:20 min/km
114Anthony Daniel Sevadera (22)01:52:210:09:21 min/km
115Unknown Runner (1177)01:52:250:09:22 min/km
116Bodjie Belen (1535)01:52:310:09:22 min/km
117Ma. Milagrosa Rojas (227)01:52:360:09:23 min/km
118Berlie Joy Lordas (23)01:52:400:09:23 min/km
119Jen Maslang (1812)01:52:460:09:23 min/km
120Nathaniel Mercado (1243)01:52:490:09:24 min/km
121Elvin Pineda (785)01:52:530:09:24 min/km
122Von Hindrik Leynes (2854)01:52:540:09:24 min/km
123Christian Errol Atienza (2366)01:52:590:09:24 min/km
124Raven Silva Catada (531)01:53:070:09:25 min/km
125Unknown Runner (2391)01:53:070:09:25 min/km
126Unknown Runner (2390)01:53:100:09:25 min/km
127Unknown Runner (1744)01:53:180:09:26 min/km
128Prince Dale Tamano (1398)01:53:420:09:28 min/km
129Camille Caralde (1713)01:53:480:09:29 min/km
130Julienne Albert Ferraren (639)01:53:500:09:29 min/km
131Unknown Runner (1174)01:53:510:09:29 min/km
132Gabriel Montez (2148)01:53:530:09:29 min/km
133Unknown Runner (2713)01:54:150:09:31 min/km
134Larry Fernandez (2667)01:54:390:09:33 min/km
135Arnel Ebio (2498)01:54:480:09:34 min/km
136Arjedh Arribe (504)01:54:560:09:34 min/km
137Charles Kevin Flores (85)01:54:590:09:34 min/km
138Unknown Runner (1172)01:55:000:09:35 min/km
139Darla Claudette Bangi (503)01:55:010:09:35 min/km
140Unknown Runner (2434)01:55:250:09:37 min/km
141Roan Kristian Tutanez (511)01:55:410:09:38 min/km
142Todd Montgomerie (1566)01:55:440:09:38 min/km
143Miguel Frias (2312)01:55:460:09:38 min/km
144Gino Obsioma (992)01:55:470:09:38 min/km
145Gary Divinagracia (2205)01:56:020:09:40 min/km
146Unknown Runner (2443)01:56:070:09:40 min/km
147Ronnie Esponga (2550)01:56:100:09:40 min/km
148Aaron Lester Nastor (52)01:56:110:09:40 min/km
149Unknown Runner (159)01:56:170:09:41 min/km
150Edwin Bagacina (1271)01:56:310:09:42 min/km
151Mark Denver Naredo (2626)01:56:330:09:42 min/km
152Shiela Salvacion Virtusio (271)01:57:060:09:45 min/km
153Mary Lace Himpisao (1230)01:57:230:09:46 min/km
154Unknown Runner (1173)01:57:290:09:47 min/km
155Unknown Runner (1350)01:57:290:09:47 min/km
156Eugene Torre Mendoza (2097)01:57:400:09:48 min/km
157Carlyn Fernandez (2551)01:57:430:09:48 min/km
158Joshua Sy (299)01:57:560:09:49 min/km
159Norville John Cartalla (249)01:58:040:09:50 min/km
160Deserie Bunani (2210)01:58:040:09:50 min/km
161Irene Fernando (1994)01:58:050:09:50 min/km
162Diane Joy Encarnacion (2209)01:58:090:09:50 min/km
163Unknown Runner (2639)01:58:220:09:51 min/km
164Jose Juan Jr. (594)01:58:250:09:52 min/km
165Unknown Runner (436)01:58:370:09:53 min/km
166Dominick Jansalin (1443)01:58:580:09:54 min/km
167Unknown Runner (1033)01:59:140:09:56 min/km
168Diane Kristine Campos (557)01:59:270:09:57 min/km
169Raisa Dosado (797)01:59:280:09:57 min/km
170Jestine Neil Perez (928)01:59:280:09:57 min/km
171Aira Robellon (2228)01:59:320:09:57 min/km
172Jessica Rivera (2138)01:59:330:09:57 min/km
173Rodrigo Sotto (1102)01:59:360:09:58 min/km
174Simon Solomon (272)01:59:370:09:58 min/km
175Mark Dave Jordan (2064)01:59:370:09:58 min/km
176Perry Felicen (207)01:59:390:09:58 min/km
177Unknown Runner (2727)01:59:490:09:59 min/km
178Unknown Runner (2444)01:59:520:09:59 min/km
179Jolaz Sebastian (693)01:59:580:09:59 min/km
180Unknown Runner (1478)01:59:590:09:59 min/km
181Cattleya Salonga (2847)02:00:000:10:00 min/km
182Nora Del Rosario (1238)02:00:010:10:00 min/km
183Vivien Marie Abitong (96)02:00:050:10:00 min/km
184Jerome Penacerrada (719)02:00:080:10:00 min/km
185Joy Reganis (2650)02:00:210:10:01 min/km
186Unknown Runner (2705)02:00:230:10:01 min/km
187Roel Lubguban (412)02:00:290:10:02 min/km
188Katherine Dazo (586)02:00:320:10:02 min/km
189Jonie Mae Gonzaga (2880)02:00:380:10:03 min/km
190Jennica Gan (99)02:00:520:10:04 min/km
191Ryan Christopher Orbe (592)02:00:560:10:04 min/km
192Caroline Pengson (585)02:01:000:10:05 min/km
193Unknown Runner (1310)02:01:010:10:05 min/km
194Sean Francis Magsayo (1127)02:01:030:10:05 min/km
195Judith Verdadero (2329)02:01:140:10:06 min/km
196Andy Joshua Oting (1273)02:01:150:10:06 min/km
197Evangeline Mendoza (124)02:01:180:10:06 min/km
198Jun Jun Palisoc (1104)02:01:350:10:07 min/km
199Unknown Runner (2807)02:01:520:10:09 min/km
200Unknown Runner (898)02:02:090:10:10 min/km
201Anne Acantilado (2038)02:02:090:10:10 min/km
202Diane Claudine Reyes (2344)02:02:200:10:11 min/km
203Jackie Bamtro (1540)02:02:220:10:11 min/km
204Coleen Rodillas (1658)02:02:240:10:12 min/km
205Marlon Gatmaitan (25)02:02:280:10:12 min/km
206Arthuro Panerio (1559)02:02:350:10:12 min/km
207Unknown Runner (1340)02:02:530:10:14 min/km
208LJ Barachea (2859)02:03:040:10:15 min/km
209Jemuel Clemente (779)02:03:350:10:17 min/km
210Ricca Abuan (2319)02:04:200:10:21 min/km
211Unknown Runner (1316)02:04:230:10:21 min/km
212Benido Palad (2262)02:04:350:10:22 min/km
213Unknown Runner (1479)02:05:000:10:25 min/km
214Maria Roderica Loreno (2623)02:05:200:10:26 min/km
215Unknown Runner (2433)02:05:360:10:28 min/km
216Rose Ann Ramos (126)02:05:450:10:28 min/km
217Arlene Marcelo (838)02:06:100:10:30 min/km
218Unknown Runner (2682)02:07:060:10:35 min/km
219Kristin Joy Ramos (2536)02:08:290:10:42 min/km
220Clark Alipasa (1603)02:09:040:10:45 min/km
221Calvin Banaag (2179)02:09:260:10:47 min/km
222Unknown Runner (2637)02:09:310:10:47 min/km
223Ria Lapidez (619)02:09:500:10:49 min/km
224Ma. Melisandy Baniquet (618)02:09:520:10:49 min/km
225Melannie Salapare (210)02:10:380:10:53 min/km
226Maria Ophelyn Runner (1500)02:10:430:10:53 min/km
227Sheila Asio (365)02:10:460:10:53 min/km
228Vic Francis Laurente (562)02:11:100:10:55 min/km
229Marc Madrigal (638)02:11:140:10:56 min/km
230Unknown Runner (1501)02:11:190:10:56 min/km
231Unknown Runner (2641)02:11:190:10:56 min/km
232Jayson Tutaan (2534)02:11:210:10:56 min/km
233Unknown Runner (1480)02:12:300:11:02 min/km
234Rizza Evangelista (968)02:12:440:11:03 min/km
235Mark Jerome Dy (1732)02:13:190:11:06 min/km
236Robert Balingit (2558)02:13:210:11:06 min/km
237Rhoby Arend Elegue (2557)02:13:220:11:06 min/km
238Budz Salvador (1534)02:13:270:11:07 min/km
239Vincent Marcel De Lima IV (1849)02:13:400:11:08 min/km
240Unknown Runner (608)02:13:510:11:09 min/km
241Bec Orencia (1533)02:13:520:11:09 min/km
242Robin Charles Ramos (51)02:13:550:11:09 min/km
243Unknown Runner (601)02:14:380:11:13 min/km
244Walter Robin Go (908)02:14:430:11:13 min/km
245Joseph Exito (2520)02:16:180:11:21 min/km
246Sheena Villanueva (2522)02:19:250:11:37 min/km
247Jonathan Brito (2340)02:22:010:11:50 min/km
248Emmanuelle Aspiras (1453)02:22:050:11:50 min/km
249Jan Leigh Raposon (301)02:29:190:12:26 min/km
Rank Name & BIB Time Pace
1James Orlanda (1985)01:33:010:06:12 min/km
2Unknown Runner (793)01:39:360:06:38 min/km
3Unknown Runner (2706)01:42:210:06:49 min/km
4Joshua Penacerrada (718)01:43:260:06:53 min/km
5Allan Joseph Paule (2076)01:47:210:07:09 min/km
6Jomar Perdiz (2648)01:48:440:07:14 min/km
7Junior Maramot (643)01:48:540:07:15 min/km
8James Millan (460)01:49:140:07:16 min/km
9Jay Jonathan Campitan (1245)01:49:200:07:17 min/km
10Ruben Fernandez Jr (2552)01:50:350:07:22 min/km
11Marcellus Jaojoco (2096)01:50:590:07:23 min/km
12juden Duque (2576)01:52:460:07:31 min/km
13Daisy Chua (1207)01:52:490:07:31 min/km
14Jose Manosca (1627)01:52:540:07:31 min/km
15Dave Renand Guimod (2567)01:53:210:07:33 min/km
16Unknown Runner (1390)01:53:270:07:33 min/km
17Sherwin Diolazo (2211)01:53:360:07:34 min/km
18Reynante Nilo (2652)01:54:200:07:37 min/km
19Miguel Cortez (931)01:54:220:07:37 min/km
20Rommel Guinto (2371)01:54:400:07:38 min/km
21Lowell Morales (2764)01:54:540:07:39 min/km
22Razielito Santos (209)01:55:130:07:40 min/km
23Jerico Garcia (327)01:55:400:07:42 min/km
24Richard Apaya (2117)01:55:490:07:43 min/km
25Anthony Morgado (1276)01:55:590:07:43 min/km
26Marilou Divinagracia (2204)01:56:030:07:44 min/km
27Patrick Dorado (21)01:56:100:07:44 min/km
28Arman Amado (1802)01:56:170:07:45 min/km
29Unknown Runner (2585)01:56:320:07:46 min/km
30Michelle Spielberg (1391)01:56:500:07:47 min/km
31Unknown Runner (2403)01:56:510:07:47 min/km
32Unknown Runner (2437)01:57:020:07:48 min/km
33Leo Tharius Montez (2147)01:57:160:07:49 min/km
34Martin John Tare (737)01:57:260:07:49 min/km
35Jean Mendoza (1956)01:59:310:07:58 min/km
36Philip Rene Gelera (2614)01:59:460:07:59 min/km
37Alfonso Reyes (1326)01:59:510:07:59 min/km
38July Domagco (993)01:59:540:07:59 min/km
39Victor Reyes (1325)01:59:590:07:59 min/km
40Unknown Runner (1365)02:00:010:08:00 min/km
41Unknown Runner (1144)02:00:150:08:01 min/km
42Unknown Runner (895)02:00:190:08:01 min/km
43Unknown Runner (229)02:00:330:08:02 min/km
44Jonalyn Ubas (208)02:00:380:08:02 min/km
45Unknown Runner (160)02:01:020:08:04 min/km
46Ariel Mendoza (123)02:01:120:08:04 min/km
47Jennifer Lombos (337)02:01:410:08:06 min/km
48Marielle Oblipias (1305)02:01:440:08:06 min/km
49Michael Aldrine Reyes (49)02:02:260:08:09 min/km
50Sandy Tablada (2314)02:02:460:08:11 min/km
51Benedict Santiago (582)02:03:420:08:14 min/km
52Unknown Runner (1145)02:03:420:08:14 min/km
53Ryan Tambalque (858)02:04:000:08:16 min/km
54Sean Dominic Suriaga (2149)02:04:180:08:17 min/km
55Ronald Allan Patetico (352)02:04:510:08:19 min/km
56Unknown Runner (2438)02:05:030:08:20 min/km
57Unknown Runner (1309)02:05:070:08:20 min/km
58Dina Alulod (1614)02:05:300:08:22 min/km
59Unknown Runner (2402)02:05:310:08:22 min/km
60John Philippe Go (59)02:06:530:08:27 min/km
61Unknown Runner (2673)02:08:140:08:32 min/km
62Toni Castillo (447)02:08:330:08:34 min/km
63George Samuel Dumayas (1494)02:09:440:08:38 min/km
64Windsor Bueno (441)02:09:460:08:39 min/km
65Armina Ulit (1545)02:10:320:08:42 min/km
66Jericho Victorino (432)02:11:150:08:45 min/km
67Hansel Dominic Escaro (2856)02:11:210:08:45 min/km
68Unknown Runner (767)02:11:460:08:47 min/km
69Jerome Reyes Jr (722)02:12:160:08:49 min/km
70Dean Marvin Gesmindo (128)02:12:370:08:50 min/km
71Ronalyn Lanila (1393)02:12:550:08:51 min/km
72Louie Organo (590)02:13:080:08:52 min/km
73Willy Soriano (252)02:14:050:08:56 min/km
74Abegail Guardian (191)02:14:070:08:56 min/km
75Maya Miranda (253)02:14:200:08:57 min/km
76Vicente Mario Barrion (459)02:14:430:08:58 min/km
77Ruston Christian Zarate (721)02:15:300:09:02 min/km
78Malen Ibanez (2187)02:15:550:09:03 min/km
79Ed Balcueva (1852)02:16:030:09:04 min/km
80Archie Mia (2022)02:17:000:09:08 min/km
81Unknown Runner (1339)02:17:170:09:09 min/km
82Jose Karlo Reyes (1544)02:19:200:09:17 min/km
83Vincent De Lima III (1855)02:25:580:09:43 min/km
Rank Name & BIB Time Pace
1Rjay Lacno (666)01:49:190:06:04 min/km
2Joseph Almarez (55)01:53:040:06:16 min/km
3Noel Salvacion (358)01:55:100:06:23 min/km
4Mary Jane Apaya (2116)01:55:140:06:24 min/km
5Macario Cruz (1647)01:56:360:06:28 min/km
6Unknown Runner (2691)01:57:160:06:30 min/km
7MS Medicated Spray Runner (1796)02:02:220:06:47 min/km
8Unknown Runner (155)02:02:230:06:47 min/km
9Fernando Gaspan (1224)02:02:510:06:49 min/km
10Unknown Runner (1146)02:05:100:06:57 min/km
11Alvin Sanga (371)02:06:190:07:01 min/km
12Neil Edwin Cabigon (1383)02:06:580:07:03 min/km
13Unknown Runner (2840)02:07:050:07:03 min/km
14Ernie Badong (1854)02:07:080:07:03 min/km
15Aaron Rey Ranque (19)02:08:100:07:07 min/km
16Fredrick Cruz (7)02:10:100:07:13 min/km
17Unknown Runner (2405)02:14:180:07:27 min/km
18Unknown Runner (2418)02:15:360:07:32 min/km
19Edan Empainado (2078)02:15:420:07:32 min/km
20Unknown Runner (2286)02:27:320:08:11 min/km
Rank Name & BIB Time Pace
1Leo Bartolome (1542)02:02:550:05:51 min/km
2Noel Diaz (2464)02:13:470:06:22 min/km
Go back to top